<?xml version="1.0" encoding="UTF-8" standalone="no" ?>
<gpx xmlns="http://www.topografix.com/GPX/1/1" xmlns:xsi="http://www.w3.org/2001/XMLSchema-instance" xsi:schemaLocation="http://www.topografix.com/GPX/1/1 http://www.topografix.com/GPX/1/1/gpx.xsd" version="1.1" creator="VisuGPX - https://www.visugpx.com">
  <metadata>
    <name>Narbios - Flow des Granges</name>
    <desc><![CDATA[<p>Type: VTT<br/>Heure de départ: 09:19 27 mars 2026<br/>Heure d'arrivée: 12:30 27 mars 2026<br/>Distance: 15,2 km (03:10)<br/>Temps déplacement: 02:42<br/>Vitesse moyenne: 4,79 km/h<br/>Vitesse en mouvement: 5,64 km/h<br/>Vitesse Max.: 34,12 km/h<br/>Altitude minimale: 722 m<br/>Altitude maximale: 1353 m<br/>Vitesse de montée: 443,5 m/h<br/>Vitesse de descente: 941,7 m/h<br/>Dénivelé positif: 813 m<br/>Dénivelé négatif: 795 m<br/>Temps de montée: 01:50<br/>Temps de descente: 00:50<br/></p><hr align="center" width="480" style="height: 2px; width: 517px"/>]]></desc>
  </metadata>
  <wpt lat="43.01234" lon="0.1516">
    <ele>721.2</ele>
  </wpt>
  <wpt lat="43.01225" lon="0.15138">
    <ele>722.8</ele>
    <desc><![CDATA[<p><br /><h3>Nom: Segment: 1</h3><br />Type: Indéfini<br/>Heure de départ: 09:19 27 mars 2026<br/>Heure d'arrivée: 12:30 27 mars 2026<br/>Distance: 15,2km (03:10)<br/>Temps déplacement: 02:42<br/>Vitesse moyenne: 4,79 km/h<br/>Vitesse en mouvement: 5,64 km/h<br/>Vitesse Max.: 34,12 km/h<br/>Altitude minimale: 722 m<br/>Altitude maximale: 1353 m<br/>Vitesse de montée: 443,5 m/h<br/>Vitesse de descente: 941,7 m/h<br/>Dénivelé positif: 813 m<br/>Dénivelé négatif: 795 m<br/>Temps de montée: 01:50<br/>Temps de descente: 00:50<br/></p>]]></desc>
  </wpt>
  <trk>
    <name><![CDATA[Flow des Granges]]></name>
    <desc><![CDATA[<p>Type: VTT<br/>Heure de départ: 09:19 27 mars 2026<br/>Heure d'arrivée: 12:30 27 mars 2026<br/>Distance: 15,2 km (03:10)<br/>Temps déplacement: 02:42<br/>Vitesse moyenne: 4,79 km/h<br/>Vitesse en mouvement: 5,64 km/h<br/>Vitesse Max.: 34,12 km/h<br/>Altitude minimale: 722 m<br/>Altitude maximale: 1353 m<br/>Vitesse de montée: 443,5 m/h<br/>Vitesse de descente: 941,7 m/h<br/>Dénivelé positif: 813 m<br/>Dénivelé négatif: 795 m<br/>Temps de montée: 01:50<br/>Temps de descente: 00:50<br/></p><hr align="center" width="480" style="height: 2px; width: 517px"/>]]></desc>
    <extensions>
      <line xmlns="http://www.topografix.com/GPX/gpx_style/0/2">
        <color>0000FF</color>
        <width>4</width>
      </line>
    </extensions>
    <trkseg>
      <trkpt lat="43.01234" lon="0.1516">
        <ele>722.58</ele>
        <time>2026-03-27T08:19:49.000Z</time>
      </trkpt>
      <trkpt lat="43.01241" lon="0.15184">
        <ele>732.59</ele>
        <time>2026-03-27T08:24:04.000Z</time>
      </trkpt>
      <trkpt lat="43.01241" lon="0.15209">
        <ele>734.03</ele>
        <time>2026-03-27T08:24:10.000Z</time>
      </trkpt>
      <trkpt lat="43.01239" lon="0.15234">
        <ele>738.64</ele>
        <time>2026-03-27T08:24:18.000Z</time>
      </trkpt>
      <trkpt lat="43.01243" lon="0.15258">
        <ele>739.55</ele>
        <time>2026-03-27T08:24:29.000Z</time>
      </trkpt>
      <trkpt lat="43.01251" lon="0.15283">
        <ele>742.18</ele>
        <time>2026-03-27T08:24:39.000Z</time>
      </trkpt>
      <trkpt lat="43.01259" lon="0.15305">
        <ele>741.68</ele>
        <time>2026-03-27T08:24:48.000Z</time>
      </trkpt>
      <trkpt lat="43.01264" lon="0.1533">
        <ele>744.13</ele>
        <time>2026-03-27T08:24:58.000Z</time>
      </trkpt>
      <trkpt lat="43.01267" lon="0.15355">
        <ele>748.44</ele>
        <time>2026-03-27T08:25:10.000Z</time>
      </trkpt>
      <trkpt lat="43.01276" lon="0.15378">
        <ele>749.23</ele>
        <time>2026-03-27T08:25:22.000Z</time>
      </trkpt>
      <trkpt lat="43.01287" lon="0.15401">
        <ele>749.4</ele>
        <time>2026-03-27T08:25:34.000Z</time>
      </trkpt>
      <trkpt lat="43.01293" lon="0.15425">
        <ele>754.07</ele>
        <time>2026-03-27T08:25:48.000Z</time>
      </trkpt>
      <trkpt lat="43.01297" lon="0.1545">
        <ele>758.98</ele>
        <time>2026-03-27T08:26:00.000Z</time>
      </trkpt>
      <trkpt lat="43.01301" lon="0.15475">
        <ele>759.54</ele>
        <time>2026-03-27T08:26:14.000Z</time>
      </trkpt>
      <trkpt lat="43.01306" lon="0.15499">
        <ele>761.04</ele>
        <time>2026-03-27T08:26:26.000Z</time>
      </trkpt>
      <trkpt lat="43.01314" lon="0.15523">
        <ele>759.5</ele>
        <time>2026-03-27T08:26:39.000Z</time>
      </trkpt>
      <trkpt lat="43.01317" lon="0.1555">
        <ele>762.22</ele>
        <time>2026-03-27T08:26:53.000Z</time>
      </trkpt>
      <trkpt lat="43.01322" lon="0.15574">
        <ele>764.38</ele>
        <time>2026-03-27T08:27:05.000Z</time>
      </trkpt>
      <trkpt lat="43.01331" lon="0.15597">
        <ele>769.2</ele>
        <time>2026-03-27T08:27:17.000Z</time>
      </trkpt>
      <trkpt lat="43.01338" lon="0.15622">
        <ele>768.53</ele>
        <time>2026-03-27T08:27:30.000Z</time>
      </trkpt>
      <trkpt lat="43.01343" lon="0.15648">
        <ele>770.64</ele>
        <time>2026-03-27T08:27:42.000Z</time>
      </trkpt>
      <trkpt lat="43.0135" lon="0.15671">
        <ele>770.84</ele>
        <time>2026-03-27T08:27:54.000Z</time>
      </trkpt>
      <trkpt lat="43.01356" lon="0.15694">
        <ele>773.52</ele>
        <time>2026-03-27T08:28:07.000Z</time>
      </trkpt>
      <trkpt lat="43.01362" lon="0.1572">
        <ele>777.81</ele>
        <time>2026-03-27T08:28:21.000Z</time>
      </trkpt>
      <trkpt lat="43.01369" lon="0.15743">
        <ele>777.13</ele>
        <time>2026-03-27T08:28:35.000Z</time>
      </trkpt>
      <trkpt lat="43.01368" lon="0.15768">
        <ele>781.32</ele>
        <time>2026-03-27T08:28:51.000Z</time>
      </trkpt>
      <trkpt lat="43.01364" lon="0.15793">
        <ele>787.49</ele>
        <time>2026-03-27T08:29:09.000Z</time>
      </trkpt>
      <trkpt lat="43.01354" lon="0.15814">
        <ele>791.85</ele>
        <time>2026-03-27T08:29:26.000Z</time>
      </trkpt>
      <trkpt lat="43.01343" lon="0.15834">
        <ele>792.76</ele>
        <time>2026-03-27T08:29:41.000Z</time>
      </trkpt>
      <trkpt lat="43.01332" lon="0.15855">
        <ele>793.94</ele>
        <time>2026-03-27T08:29:56.000Z</time>
      </trkpt>
      <trkpt lat="43.01317" lon="0.15869">
        <ele>792.63</ele>
        <time>2026-03-27T08:30:15.000Z</time>
      </trkpt>
      <trkpt lat="43.01299" lon="0.15873">
        <ele>795.52</ele>
        <time>2026-03-27T08:30:31.000Z</time>
      </trkpt>
      <trkpt lat="43.01306" lon="0.1585">
        <ele>801.41</ele>
        <time>2026-03-27T08:30:59.000Z</time>
      </trkpt>
      <trkpt lat="43.01316" lon="0.15829">
        <ele>803.7</ele>
        <time>2026-03-27T08:31:16.000Z</time>
      </trkpt>
      <trkpt lat="43.01318" lon="0.15803">
        <ele>808.12</ele>
        <time>2026-03-27T08:31:27.000Z</time>
      </trkpt>
      <trkpt lat="43.01314" lon="0.15779">
        <ele>805.95</ele>
        <time>2026-03-27T08:31:35.000Z</time>
      </trkpt>
      <trkpt lat="43.01308" lon="0.15754">
        <ele>803.65</ele>
        <time>2026-03-27T08:31:46.000Z</time>
      </trkpt>
      <trkpt lat="43.01299" lon="0.15732">
        <ele>800.62</ele>
        <time>2026-03-27T08:31:56.000Z</time>
      </trkpt>
      <trkpt lat="43.01291" lon="0.15711">
        <ele>800.7</ele>
        <time>2026-03-27T08:32:05.000Z</time>
      </trkpt>
      <trkpt lat="43.0128" lon="0.15688">
        <ele>802.89</ele>
        <time>2026-03-27T08:32:16.000Z</time>
      </trkpt>
      <trkpt lat="43.01272" lon="0.15665">
        <ele>804.04</ele>
        <time>2026-03-27T08:32:26.000Z</time>
      </trkpt>
      <trkpt lat="43.0126" lon="0.15645">
        <ele>802.07</ele>
        <time>2026-03-27T08:32:37.000Z</time>
      </trkpt>
      <trkpt lat="43.01251" lon="0.15621">
        <ele>803.79</ele>
        <time>2026-03-27T08:32:47.000Z</time>
      </trkpt>
      <trkpt lat="43.0124" lon="0.15599">
        <ele>804.29</ele>
        <time>2026-03-27T08:32:57.000Z</time>
      </trkpt>
      <trkpt lat="43.01222" lon="0.15588">
        <ele>799.38</ele>
        <time>2026-03-27T08:33:01.000Z</time>
      </trkpt>
      <trkpt lat="43.01206" lon="0.15573">
        <ele>795.16</ele>
        <time>2026-03-27T08:33:08.000Z</time>
      </trkpt>
      <trkpt lat="43.01203" lon="0.15549">
        <ele>799</ele>
        <time>2026-03-27T08:33:21.000Z</time>
      </trkpt>
      <trkpt lat="43.01197" lon="0.15524">
        <ele>803.02</ele>
        <time>2026-03-27T08:33:33.000Z</time>
      </trkpt>
      <trkpt lat="43.01188" lon="0.15502">
        <ele>803.87</ele>
        <time>2026-03-27T08:33:44.000Z</time>
      </trkpt>
      <trkpt lat="43.01182" lon="0.15477">
        <ele>809.99</ele>
        <time>2026-03-27T08:33:58.000Z</time>
      </trkpt>
      <trkpt lat="43.01173" lon="0.15455">
        <ele>815.96</ele>
        <time>2026-03-27T08:34:11.000Z</time>
      </trkpt>
      <trkpt lat="43.01165" lon="0.15431">
        <ele>820.67</ele>
        <time>2026-03-27T08:34:26.000Z</time>
      </trkpt>
      <trkpt lat="43.01152" lon="0.15411">
        <ele>823.46</ele>
        <time>2026-03-27T08:34:39.000Z</time>
      </trkpt>
      <trkpt lat="43.01136" lon="0.15399">
        <ele>824.28</ele>
        <time>2026-03-27T08:34:49.000Z</time>
      </trkpt>
      <trkpt lat="43.01121" lon="0.15383">
        <ele>826.71</ele>
        <time>2026-03-27T08:35:03.000Z</time>
      </trkpt>
      <trkpt lat="43.01104" lon="0.15371">
        <ele>827.53</ele>
        <time>2026-03-27T08:35:14.000Z</time>
      </trkpt>
      <trkpt lat="43.01087" lon="0.15358">
        <ele>833.1</ele>
        <time>2026-03-27T08:35:29.000Z</time>
      </trkpt>
      <trkpt lat="43.01071" lon="0.15345">
        <ele>836.28</ele>
        <time>2026-03-27T08:35:41.000Z</time>
      </trkpt>
      <trkpt lat="43.01053" lon="0.15333">
        <ele>837.54</ele>
        <time>2026-03-27T08:35:52.000Z</time>
      </trkpt>
      <trkpt lat="43.01036" lon="0.15322">
        <ele>840.13</ele>
        <time>2026-03-27T08:36:03.000Z</time>
      </trkpt>
      <trkpt lat="43.01021" lon="0.15309">
        <ele>841.86</ele>
        <time>2026-03-27T08:36:14.000Z</time>
      </trkpt>
      <trkpt lat="43.01012" lon="0.15286">
        <ele>846.18</ele>
        <time>2026-03-27T08:36:28.000Z</time>
      </trkpt>
      <trkpt lat="43.01004" lon="0.15263">
        <ele>850.55</ele>
        <time>2026-03-27T08:36:41.000Z</time>
      </trkpt>
      <trkpt lat="43.00998" lon="0.15238">
        <ele>849.72</ele>
        <time>2026-03-27T08:36:55.000Z</time>
      </trkpt>
      <trkpt lat="43.00992" lon="0.15214">
        <ele>853.51</ele>
        <time>2026-03-27T08:37:10.000Z</time>
      </trkpt>
      <trkpt lat="43.00988" lon="0.15189">
        <ele>857.08</ele>
        <time>2026-03-27T08:37:27.000Z</time>
      </trkpt>
      <trkpt lat="43.00984" lon="0.15164">
        <ele>861.01</ele>
        <time>2026-03-27T08:37:44.000Z</time>
      </trkpt>
      <trkpt lat="43.00976" lon="0.15142">
        <ele>863.62</ele>
        <time>2026-03-27T08:38:01.000Z</time>
      </trkpt>
      <trkpt lat="43.00969" lon="0.15119">
        <ele>865.45</ele>
        <time>2026-03-27T08:38:18.000Z</time>
      </trkpt>
      <trkpt lat="43.00959" lon="0.15098">
        <ele>869.41</ele>
        <time>2026-03-27T08:38:36.000Z</time>
      </trkpt>
      <trkpt lat="43.0095" lon="0.15076">
        <ele>873.39</ele>
        <time>2026-03-27T08:38:55.000Z</time>
      </trkpt>
      <trkpt lat="43.0094" lon="0.15054">
        <ele>876.42</ele>
        <time>2026-03-27T08:39:16.000Z</time>
      </trkpt>
      <trkpt lat="43.00926" lon="0.15038">
        <ele>877.37</ele>
        <time>2026-03-27T08:39:33.000Z</time>
      </trkpt>
      <trkpt lat="43.0091" lon="0.15024">
        <ele>880.94</ele>
        <time>2026-03-27T08:39:51.000Z</time>
      </trkpt>
      <trkpt lat="43.00896" lon="0.15008">
        <ele>882.2</ele>
        <time>2026-03-27T08:40:07.000Z</time>
      </trkpt>
      <trkpt lat="43.00881" lon="0.14991">
        <ele>884.77</ele>
        <time>2026-03-27T08:40:23.000Z</time>
      </trkpt>
      <trkpt lat="43.00868" lon="0.14973">
        <ele>885.93</ele>
        <time>2026-03-27T08:40:38.000Z</time>
      </trkpt>
      <trkpt lat="43.00855" lon="0.14954">
        <ele>891.06</ele>
        <time>2026-03-27T08:40:55.000Z</time>
      </trkpt>
      <trkpt lat="43.00843" lon="0.14935">
        <ele>893.05</ele>
        <time>2026-03-27T08:41:10.000Z</time>
      </trkpt>
      <trkpt lat="43.00833" lon="0.14915">
        <ele>897.28</ele>
        <time>2026-03-27T08:41:26.000Z</time>
      </trkpt>
      <trkpt lat="43.00823" lon="0.14894">
        <ele>902.33</ele>
        <time>2026-03-27T08:41:44.000Z</time>
      </trkpt>
      <trkpt lat="43.00807" lon="0.14881">
        <ele>902.21</ele>
        <time>2026-03-27T08:41:58.000Z</time>
      </trkpt>
      <trkpt lat="43.0079" lon="0.14873">
        <ele>903.83</ele>
        <time>2026-03-27T08:42:16.000Z</time>
      </trkpt>
      <trkpt lat="43.00774" lon="0.14861">
        <ele>907.67</ele>
        <time>2026-03-27T08:42:32.000Z</time>
      </trkpt>
      <trkpt lat="43.00757" lon="0.14851">
        <ele>910.48</ele>
        <time>2026-03-27T08:42:44.000Z</time>
      </trkpt>
      <trkpt lat="43.00742" lon="0.14835">
        <ele>915.16</ele>
        <time>2026-03-27T08:42:58.000Z</time>
      </trkpt>
      <trkpt lat="43.00726" lon="0.14823">
        <ele>914.1</ele>
        <time>2026-03-27T08:43:11.000Z</time>
      </trkpt>
      <trkpt lat="43.00708" lon="0.14818">
        <ele>917.48</ele>
        <time>2026-03-27T08:43:26.000Z</time>
      </trkpt>
      <trkpt lat="43.0069" lon="0.14818">
        <ele>917.99</ele>
        <time>2026-03-27T08:43:42.000Z</time>
      </trkpt>
      <trkpt lat="43.00672" lon="0.14815">
        <ele>921.73</ele>
        <time>2026-03-27T08:43:55.000Z</time>
      </trkpt>
      <trkpt lat="43.00654" lon="0.14809">
        <ele>927.53</ele>
        <time>2026-03-27T08:44:11.000Z</time>
      </trkpt>
      <trkpt lat="43.00637" lon="0.148">
        <ele>930.76</ele>
        <time>2026-03-27T08:44:23.000Z</time>
      </trkpt>
      <trkpt lat="43.00619" lon="0.14793">
        <ele>931.22</ele>
        <time>2026-03-27T08:44:35.000Z</time>
      </trkpt>
      <trkpt lat="43.006" lon="0.14787">
        <ele>932.87</ele>
        <time>2026-03-27T08:44:49.000Z</time>
      </trkpt>
      <trkpt lat="43.00582" lon="0.14781">
        <ele>934.97</ele>
        <time>2026-03-27T08:45:03.000Z</time>
      </trkpt>
      <trkpt lat="43.00564" lon="0.14775">
        <ele>939.63</ele>
        <time>2026-03-27T08:45:16.000Z</time>
      </trkpt>
      <trkpt lat="43.00546" lon="0.14766">
        <ele>940.61</ele>
        <time>2026-03-27T08:45:28.000Z</time>
      </trkpt>
      <trkpt lat="43.0053" lon="0.14753">
        <ele>939.58</ele>
        <time>2026-03-27T08:45:38.000Z</time>
      </trkpt>
      <trkpt lat="43.00519" lon="0.14733">
        <ele>941.64</ele>
        <time>2026-03-27T08:45:51.000Z</time>
      </trkpt>
      <trkpt lat="43.00506" lon="0.14715">
        <ele>944.03</ele>
        <time>2026-03-27T08:46:03.000Z</time>
      </trkpt>
      <trkpt lat="43.00491" lon="0.147">
        <ele>947.74</ele>
        <time>2026-03-27T08:46:16.000Z</time>
      </trkpt>
      <trkpt lat="43.00476" lon="0.14686">
        <ele>949.87</ele>
        <time>2026-03-27T08:46:27.000Z</time>
      </trkpt>
      <trkpt lat="43.0046" lon="0.14675">
        <ele>951.51</ele>
        <time>2026-03-27T08:46:38.000Z</time>
      </trkpt>
      <trkpt lat="43.00442" lon="0.14667">
        <ele>949.93</ele>
        <time>2026-03-27T08:46:48.000Z</time>
      </trkpt>
      <trkpt lat="43.00424" lon="0.14661">
        <ele>948.3</ele>
        <time>2026-03-27T08:46:58.000Z</time>
      </trkpt>
      <trkpt lat="43.00406" lon="0.14656">
        <ele>950.39</ele>
        <time>2026-03-27T08:47:07.000Z</time>
      </trkpt>
      <trkpt lat="43.00388" lon="0.14656">
        <ele>947.13</ele>
        <time>2026-03-27T08:47:11.000Z</time>
      </trkpt>
      <trkpt lat="43.0037" lon="0.14661">
        <ele>943.82</ele>
        <time>2026-03-27T08:47:18.000Z</time>
      </trkpt>
      <trkpt lat="43.00353" lon="0.14671">
        <ele>945.7</ele>
        <time>2026-03-27T08:50:48.000Z</time>
      </trkpt>
      <trkpt lat="43.00337" lon="0.14687">
        <ele>947.53</ele>
        <time>2026-03-27T08:50:54.000Z</time>
      </trkpt>
      <trkpt lat="43.0032" lon="0.14697">
        <ele>947.55</ele>
        <time>2026-03-27T08:51:01.000Z</time>
      </trkpt>
      <trkpt lat="43.00302" lon="0.14711">
        <ele>949.12</ele>
        <time>2026-03-27T08:51:10.000Z</time>
      </trkpt>
      <trkpt lat="43.00285" lon="0.1472">
        <ele>949.11</ele>
        <time>2026-03-27T08:51:18.000Z</time>
      </trkpt>
      <trkpt lat="43.0027" lon="0.14735">
        <ele>951.3</ele>
        <time>2026-03-27T08:51:28.000Z</time>
      </trkpt>
      <trkpt lat="43.00252" lon="0.14745">
        <ele>953.77</ele>
        <time>2026-03-27T08:51:41.000Z</time>
      </trkpt>
      <trkpt lat="43.00234" lon="0.14748">
        <ele>957.4</ele>
        <time>2026-03-27T08:51:53.000Z</time>
      </trkpt>
      <trkpt lat="43.00215" lon="0.14743">
        <ele>959.74</ele>
        <time>2026-03-27T08:52:05.000Z</time>
      </trkpt>
      <trkpt lat="43.00196" lon="0.14736">
        <ele>959.35</ele>
        <time>2026-03-27T08:52:17.000Z</time>
      </trkpt>
      <trkpt lat="43.0018" lon="0.14723">
        <ele>958.9</ele>
        <time>2026-03-27T08:52:25.000Z</time>
      </trkpt>
      <trkpt lat="43.0017" lon="0.14701">
        <ele>960.09</ele>
        <time>2026-03-27T08:52:33.000Z</time>
      </trkpt>
      <trkpt lat="43.00166" lon="0.14675">
        <ele>959.2</ele>
        <time>2026-03-27T08:52:42.000Z</time>
      </trkpt>
      <trkpt lat="43.00157" lon="0.14653">
        <ele>956.97</ele>
        <time>2026-03-27T08:52:51.000Z</time>
      </trkpt>
      <trkpt lat="43.00148" lon="0.14629">
        <ele>956.4</ele>
        <time>2026-03-27T08:53:00.000Z</time>
      </trkpt>
      <trkpt lat="43.00145" lon="0.14602">
        <ele>958.7</ele>
        <time>2026-03-27T08:53:08.000Z</time>
      </trkpt>
      <trkpt lat="43.00141" lon="0.14575">
        <ele>959.58</ele>
        <time>2026-03-27T08:53:16.000Z</time>
      </trkpt>
      <trkpt lat="43.00138" lon="0.14549">
        <ele>959.28</ele>
        <time>2026-03-27T08:53:25.000Z</time>
      </trkpt>
      <trkpt lat="43.00146" lon="0.14526">
        <ele>957.08</ele>
        <time>2026-03-27T08:53:34.000Z</time>
      </trkpt>
      <trkpt lat="43.00152" lon="0.14502">
        <ele>958.3</ele>
        <time>2026-03-27T08:53:46.000Z</time>
      </trkpt>
      <trkpt lat="43.00155" lon="0.14478">
        <ele>965.23</ele>
        <time>2026-03-27T08:54:07.000Z</time>
      </trkpt>
      <trkpt lat="43.00152" lon="0.14453">
        <ele>965.37</ele>
        <time>2026-03-27T08:54:25.000Z</time>
      </trkpt>
      <trkpt lat="43.00141" lon="0.14432">
        <ele>965.97</ele>
        <time>2026-03-27T08:54:39.000Z</time>
      </trkpt>
      <trkpt lat="43.0013" lon="0.14411">
        <ele>968.56</ele>
        <time>2026-03-27T08:54:58.000Z</time>
      </trkpt>
      <trkpt lat="43.00118" lon="0.14393">
        <ele>971.61</ele>
        <time>2026-03-27T08:55:18.000Z</time>
      </trkpt>
      <trkpt lat="43.00104" lon="0.14377">
        <ele>975.67</ele>
        <time>2026-03-27T08:55:38.000Z</time>
      </trkpt>
      <trkpt lat="43.0009" lon="0.14362">
        <ele>977.52</ele>
        <time>2026-03-27T08:55:54.000Z</time>
      </trkpt>
      <trkpt lat="43.00073" lon="0.14352">
        <ele>979.55</ele>
        <time>2026-03-27T08:56:08.000Z</time>
      </trkpt>
      <trkpt lat="43.00055" lon="0.14345">
        <ele>981.56</ele>
        <time>2026-03-27T08:56:21.000Z</time>
      </trkpt>
      <trkpt lat="43.0004" lon="0.1433">
        <ele>982.96</ele>
        <time>2026-03-27T08:56:30.000Z</time>
      </trkpt>
      <trkpt lat="43.00026" lon="0.1431">
        <ele>984.53</ele>
        <time>2026-03-27T08:56:39.000Z</time>
      </trkpt>
      <trkpt lat="43.0001" lon="0.14296">
        <ele>983.66</ele>
        <time>2026-03-27T08:56:48.000Z</time>
      </trkpt>
      <trkpt lat="42.9999" lon="0.14284">
        <ele>981.85</ele>
        <time>2026-03-27T08:56:55.000Z</time>
      </trkpt>
      <trkpt lat="42.99973" lon="0.14277">
        <ele>981.86</ele>
        <time>2026-03-27T08:56:59.000Z</time>
      </trkpt>
      <trkpt lat="42.99955" lon="0.14263">
        <ele>977.65</ele>
        <time>2026-03-27T08:57:03.000Z</time>
      </trkpt>
      <trkpt lat="42.99936" lon="0.14251">
        <ele>977.31</ele>
        <time>2026-03-27T08:57:07.000Z</time>
      </trkpt>
      <trkpt lat="42.99918" lon="0.14245">
        <ele>976.51</ele>
        <time>2026-03-27T08:57:10.000Z</time>
      </trkpt>
      <trkpt lat="42.999" lon="0.14233">
        <ele>978.97</ele>
        <time>2026-03-27T08:57:18.000Z</time>
      </trkpt>
      <trkpt lat="42.99888" lon="0.14214">
        <ele>977.54</ele>
        <time>2026-03-27T08:57:24.000Z</time>
      </trkpt>
      <trkpt lat="42.99878" lon="0.14192">
        <ele>976.3</ele>
        <time>2026-03-27T08:57:29.000Z</time>
      </trkpt>
      <trkpt lat="42.99861" lon="0.14182">
        <ele>973.27</ele>
        <time>2026-03-27T08:57:32.000Z</time>
      </trkpt>
      <trkpt lat="42.99832" lon="0.14174">
        <ele>970.2</ele>
        <time>2026-03-27T08:57:35.000Z</time>
      </trkpt>
      <trkpt lat="42.9981" lon="0.14167">
        <ele>968.72</ele>
        <time>2026-03-27T08:57:38.000Z</time>
      </trkpt>
      <trkpt lat="42.99785" lon="0.14162">
        <ele>967.8</ele>
        <time>2026-03-27T08:57:41.000Z</time>
      </trkpt>
      <trkpt lat="42.99767" lon="0.14153">
        <ele>967.63</ele>
        <time>2026-03-27T08:57:44.000Z</time>
      </trkpt>
      <trkpt lat="42.99749" lon="0.14148">
        <ele>968.77</ele>
        <time>2026-03-27T08:57:49.000Z</time>
      </trkpt>
      <trkpt lat="42.99732" lon="0.14141">
        <ele>971.7</ele>
        <time>2026-03-27T08:57:59.000Z</time>
      </trkpt>
      <trkpt lat="42.99713" lon="0.14139">
        <ele>970</ele>
        <time>2026-03-27T08:58:06.000Z</time>
      </trkpt>
      <trkpt lat="42.99694" lon="0.14136">
        <ele>970.55</ele>
        <time>2026-03-27T08:58:15.000Z</time>
      </trkpt>
      <trkpt lat="42.99675" lon="0.14137">
        <ele>972.91</ele>
        <time>2026-03-27T08:58:25.000Z</time>
      </trkpt>
      <trkpt lat="42.99657" lon="0.14137">
        <ele>977.34</ele>
        <time>2026-03-27T08:58:40.000Z</time>
      </trkpt>
      <trkpt lat="42.99638" lon="0.14131">
        <ele>973.13</ele>
        <time>2026-03-27T08:58:47.000Z</time>
      </trkpt>
      <trkpt lat="42.99623" lon="0.14116">
        <ele>973.8</ele>
        <time>2026-03-27T08:58:54.000Z</time>
      </trkpt>
      <trkpt lat="42.99605" lon="0.1411">
        <ele>968.73</ele>
        <time>2026-03-27T09:00:21.000Z</time>
      </trkpt>
      <trkpt lat="42.99587" lon="0.14105">
        <ele>970.67</ele>
        <time>2026-03-27T09:00:30.000Z</time>
      </trkpt>
      <trkpt lat="42.99569" lon="0.14112">
        <ele>971.51</ele>
        <time>2026-03-27T09:00:44.000Z</time>
      </trkpt>
      <trkpt lat="42.99552" lon="0.14119">
        <ele>974.34</ele>
        <time>2026-03-27T09:00:53.000Z</time>
      </trkpt>
      <trkpt lat="42.99534" lon="0.14128">
        <ele>973.41</ele>
        <time>2026-03-27T09:01:07.000Z</time>
      </trkpt>
      <trkpt lat="42.99517" lon="0.14135">
        <ele>975.72</ele>
        <time>2026-03-27T09:01:27.000Z</time>
      </trkpt>
      <trkpt lat="42.99498" lon="0.14138">
        <ele>982.02</ele>
        <time>2026-03-27T09:01:43.000Z</time>
      </trkpt>
      <trkpt lat="42.99479" lon="0.14143">
        <ele>985.71</ele>
        <time>2026-03-27T09:01:58.000Z</time>
      </trkpt>
      <trkpt lat="42.9946" lon="0.14142">
        <ele>988.67</ele>
        <time>2026-03-27T09:02:12.000Z</time>
      </trkpt>
      <trkpt lat="42.99441" lon="0.14139">
        <ele>990.54</ele>
        <time>2026-03-27T09:02:27.000Z</time>
      </trkpt>
      <trkpt lat="42.99422" lon="0.14135">
        <ele>993.15</ele>
        <time>2026-03-27T09:02:42.000Z</time>
      </trkpt>
      <trkpt lat="42.99402" lon="0.14132">
        <ele>990.82</ele>
        <time>2026-03-27T09:03:05.000Z</time>
      </trkpt>
      <trkpt lat="42.99384" lon="0.14127">
        <ele>995.85</ele>
        <time>2026-03-27T09:04:44.000Z</time>
      </trkpt>
      <trkpt lat="42.99366" lon="0.14127">
        <ele>999.78</ele>
        <time>2026-03-27T09:05:01.000Z</time>
      </trkpt>
      <trkpt lat="42.99347" lon="0.14123">
        <ele>1002.64</ele>
        <time>2026-03-27T09:05:21.000Z</time>
      </trkpt>
      <trkpt lat="42.99329" lon="0.14117">
        <ele>1003.1</ele>
        <time>2026-03-27T09:05:40.000Z</time>
      </trkpt>
      <trkpt lat="42.99311" lon="0.14112">
        <ele>1008.51</ele>
        <time>2026-03-27T09:05:56.000Z</time>
      </trkpt>
      <trkpt lat="42.99292" lon="0.1411">
        <ele>1011.06</ele>
        <time>2026-03-27T09:06:17.000Z</time>
      </trkpt>
      <trkpt lat="42.99275" lon="0.14102">
        <ele>1015.98</ele>
        <time>2026-03-27T09:06:35.000Z</time>
      </trkpt>
      <trkpt lat="42.99257" lon="0.14098">
        <ele>1018.57</ele>
        <time>2026-03-27T09:06:52.000Z</time>
      </trkpt>
      <trkpt lat="42.99239" lon="0.14092">
        <ele>1019.39</ele>
        <time>2026-03-27T09:07:08.000Z</time>
      </trkpt>
      <trkpt lat="42.99221" lon="0.14092">
        <ele>1019.54</ele>
        <time>2026-03-27T09:07:21.000Z</time>
      </trkpt>
      <trkpt lat="42.99203" lon="0.14088">
        <ele>1021.13</ele>
        <time>2026-03-27T09:07:36.000Z</time>
      </trkpt>
      <trkpt lat="42.99184" lon="0.14081">
        <ele>1023.22</ele>
        <time>2026-03-27T09:07:47.000Z</time>
      </trkpt>
      <trkpt lat="42.99166" lon="0.14077">
        <ele>1025.47</ele>
        <time>2026-03-27T09:08:02.000Z</time>
      </trkpt>
      <trkpt lat="42.99147" lon="0.14074">
        <ele>1028.49</ele>
        <time>2026-03-27T09:08:20.000Z</time>
      </trkpt>
      <trkpt lat="42.99129" lon="0.14075">
        <ele>1030.13</ele>
        <time>2026-03-27T09:08:37.000Z</time>
      </trkpt>
      <trkpt lat="42.99111" lon="0.14079">
        <ele>1036.31</ele>
        <time>2026-03-27T09:08:55.000Z</time>
      </trkpt>
      <trkpt lat="42.99093" lon="0.14085">
        <ele>1039.16</ele>
        <time>2026-03-27T09:09:13.000Z</time>
      </trkpt>
      <trkpt lat="42.99076" lon="0.14094">
        <ele>1039.77</ele>
        <time>2026-03-27T09:09:25.000Z</time>
      </trkpt>
      <trkpt lat="42.99057" lon="0.14094">
        <ele>1039.07</ele>
        <time>2026-03-27T09:09:40.000Z</time>
      </trkpt>
      <trkpt lat="42.99037" lon="0.14098">
        <ele>1039.17</ele>
        <time>2026-03-27T09:09:51.000Z</time>
      </trkpt>
      <trkpt lat="42.99019" lon="0.14101">
        <ele>1042.32</ele>
        <time>2026-03-27T09:10:03.000Z</time>
      </trkpt>
      <trkpt lat="42.99001" lon="0.14105">
        <ele>1044.46</ele>
        <time>2026-03-27T09:10:16.000Z</time>
      </trkpt>
      <trkpt lat="42.98982" lon="0.14108">
        <ele>1047.07</ele>
        <time>2026-03-27T09:10:27.000Z</time>
      </trkpt>
      <trkpt lat="42.98963" lon="0.14111">
        <ele>1047.77</ele>
        <time>2026-03-27T09:10:42.000Z</time>
      </trkpt>
      <trkpt lat="42.98944" lon="0.14109">
        <ele>1049.35</ele>
        <time>2026-03-27T09:10:51.000Z</time>
      </trkpt>
      <trkpt lat="42.98926" lon="0.14106">
        <ele>1051.11</ele>
        <time>2026-03-27T09:11:00.000Z</time>
      </trkpt>
      <trkpt lat="42.98908" lon="0.14101">
        <ele>1052.41</ele>
        <time>2026-03-27T09:11:12.000Z</time>
      </trkpt>
      <trkpt lat="42.98889" lon="0.14091">
        <ele>1053.33</ele>
        <time>2026-03-27T09:11:24.000Z</time>
      </trkpt>
      <trkpt lat="42.98873" lon="0.14078">
        <ele>1052.99</ele>
        <time>2026-03-27T09:11:32.000Z</time>
      </trkpt>
      <trkpt lat="42.98865" lon="0.14056">
        <ele>1053.66</ele>
        <time>2026-03-27T09:11:41.000Z</time>
      </trkpt>
      <trkpt lat="42.98865" lon="0.1403">
        <ele>1055.14</ele>
        <time>2026-03-27T09:11:53.000Z</time>
      </trkpt>
      <trkpt lat="42.98874" lon="0.14007">
        <ele>1055.48</ele>
        <time>2026-03-27T09:12:06.000Z</time>
      </trkpt>
      <trkpt lat="42.98887" lon="0.13989">
        <ele>1057.68</ele>
        <time>2026-03-27T09:12:21.000Z</time>
      </trkpt>
      <trkpt lat="42.98904" lon="0.13976">
        <ele>1055.85</ele>
        <time>2026-03-27T09:12:33.000Z</time>
      </trkpt>
      <trkpt lat="42.9892" lon="0.13965">
        <ele>1053.89</ele>
        <time>2026-03-27T09:12:42.000Z</time>
      </trkpt>
      <trkpt lat="42.98936" lon="0.13951">
        <ele>1054.94</ele>
        <time>2026-03-27T09:12:52.000Z</time>
      </trkpt>
      <trkpt lat="42.98949" lon="0.13932">
        <ele>1056.4</ele>
        <time>2026-03-27T09:13:02.000Z</time>
      </trkpt>
      <trkpt lat="42.98962" lon="0.13913">
        <ele>1058.76</ele>
        <time>2026-03-27T09:13:14.000Z</time>
      </trkpt>
      <trkpt lat="42.98979" lon="0.13901">
        <ele>1061.11</ele>
        <time>2026-03-27T09:15:32.000Z</time>
      </trkpt>
      <trkpt lat="42.98997" lon="0.13894">
        <ele>1064.28</ele>
        <time>2026-03-27T09:15:45.000Z</time>
      </trkpt>
      <trkpt lat="42.99016" lon="0.13888">
        <ele>1064.61</ele>
        <time>2026-03-27T09:15:58.000Z</time>
      </trkpt>
      <trkpt lat="42.99034" lon="0.13883">
        <ele>1066.29</ele>
        <time>2026-03-27T09:16:10.000Z</time>
      </trkpt>
      <trkpt lat="42.99051" lon="0.13875">
        <ele>1068.92</ele>
        <time>2026-03-27T09:16:22.000Z</time>
      </trkpt>
      <trkpt lat="42.99069" lon="0.1387">
        <ele>1071.09</ele>
        <time>2026-03-27T09:16:35.000Z</time>
      </trkpt>
      <trkpt lat="42.99087" lon="0.13865">
        <ele>1078.19</ele>
        <time>2026-03-27T09:16:49.000Z</time>
      </trkpt>
      <trkpt lat="42.99103" lon="0.13852">
        <ele>1078.73</ele>
        <time>2026-03-27T09:17:00.000Z</time>
      </trkpt>
      <trkpt lat="42.99119" lon="0.13838">
        <ele>1079.43</ele>
        <time>2026-03-27T09:17:12.000Z</time>
      </trkpt>
      <trkpt lat="42.99138" lon="0.13838">
        <ele>1081.71</ele>
        <time>2026-03-27T09:17:23.000Z</time>
      </trkpt>
      <trkpt lat="42.99156" lon="0.1384">
        <ele>1088.09</ele>
        <time>2026-03-27T09:17:33.000Z</time>
      </trkpt>
      <trkpt lat="42.99175" lon="0.13837">
        <ele>1088.22</ele>
        <time>2026-03-27T09:17:44.000Z</time>
      </trkpt>
      <trkpt lat="42.99194" lon="0.13832">
        <ele>1092.97</ele>
        <time>2026-03-27T09:17:55.000Z</time>
      </trkpt>
      <trkpt lat="42.99214" lon="0.13831">
        <ele>1091.33</ele>
        <time>2026-03-27T09:18:06.000Z</time>
      </trkpt>
      <trkpt lat="42.99233" lon="0.13828">
        <ele>1091.57</ele>
        <time>2026-03-27T09:18:16.000Z</time>
      </trkpt>
      <trkpt lat="42.99251" lon="0.13824">
        <ele>1090.92</ele>
        <time>2026-03-27T09:18:27.000Z</time>
      </trkpt>
      <trkpt lat="42.9927" lon="0.13821">
        <ele>1095.21</ele>
        <time>2026-03-27T09:18:38.000Z</time>
      </trkpt>
      <trkpt lat="42.99289" lon="0.1382">
        <ele>1100.28</ele>
        <time>2026-03-27T09:18:50.000Z</time>
      </trkpt>
      <trkpt lat="42.99308" lon="0.13816">
        <ele>1101.92</ele>
        <time>2026-03-27T09:19:01.000Z</time>
      </trkpt>
      <trkpt lat="42.99325" lon="0.13803">
        <ele>1101.52</ele>
        <time>2026-03-27T09:19:11.000Z</time>
      </trkpt>
      <trkpt lat="42.99319" lon="0.13777">
        <ele>1098.1</ele>
        <time>2026-03-27T09:19:21.000Z</time>
      </trkpt>
      <trkpt lat="42.99308" lon="0.13757">
        <ele>1099.51</ele>
        <time>2026-03-27T09:19:31.000Z</time>
      </trkpt>
      <trkpt lat="42.99315" lon="0.13734">
        <ele>1104.2</ele>
        <time>2026-03-27T09:19:45.000Z</time>
      </trkpt>
      <trkpt lat="42.99333" lon="0.13725">
        <ele>1106.06</ele>
        <time>2026-03-27T09:20:45.000Z</time>
      </trkpt>
      <trkpt lat="42.99347" lon="0.13705">
        <ele>1106.08</ele>
        <time>2026-03-27T09:20:51.000Z</time>
      </trkpt>
      <trkpt lat="42.99364" lon="0.13691">
        <ele>1105.97</ele>
        <time>2026-03-27T09:20:57.000Z</time>
      </trkpt>
      <trkpt lat="42.99378" lon="0.13671">
        <ele>1103.27</ele>
        <time>2026-03-27T09:21:03.000Z</time>
      </trkpt>
      <trkpt lat="42.99386" lon="0.13645">
        <ele>1102.34</ele>
        <time>2026-03-27T09:21:09.000Z</time>
      </trkpt>
      <trkpt lat="42.99388" lon="0.1362">
        <ele>1098.61</ele>
        <time>2026-03-27T09:21:15.000Z</time>
      </trkpt>
      <trkpt lat="42.9939" lon="0.13596">
        <ele>1099.37</ele>
        <time>2026-03-27T09:21:23.000Z</time>
      </trkpt>
      <trkpt lat="42.99387" lon="0.1357">
        <ele>1094.85</ele>
        <time>2026-03-27T09:23:34.000Z</time>
      </trkpt>
      <trkpt lat="42.99384" lon="0.13545">
        <ele>1093.02</ele>
        <time>2026-03-27T09:23:40.000Z</time>
      </trkpt>
      <trkpt lat="42.99376" lon="0.13518">
        <ele>1092.22</ele>
        <time>2026-03-27T09:23:45.000Z</time>
      </trkpt>
      <trkpt lat="42.99364" lon="0.13496">
        <ele>1091.24</ele>
        <time>2026-03-27T09:23:50.000Z</time>
      </trkpt>
      <trkpt lat="42.99346" lon="0.1348">
        <ele>1090.23</ele>
        <time>2026-03-27T09:23:54.000Z</time>
      </trkpt>
      <trkpt lat="42.99331" lon="0.13455">
        <ele>1088.85</ele>
        <time>2026-03-27T09:23:58.000Z</time>
      </trkpt>
      <trkpt lat="42.99326" lon="0.1343">
        <ele>1088.89</ele>
        <time>2026-03-27T09:24:01.000Z</time>
      </trkpt>
      <trkpt lat="42.99321" lon="0.13405">
        <ele>1086.95</ele>
        <time>2026-03-27T09:24:04.000Z</time>
      </trkpt>
      <trkpt lat="42.99314" lon="0.13376">
        <ele>1088.6</ele>
        <time>2026-03-27T09:24:08.000Z</time>
      </trkpt>
      <trkpt lat="42.99299" lon="0.13355">
        <ele>1087.08</ele>
        <time>2026-03-27T09:24:12.000Z</time>
      </trkpt>
      <trkpt lat="42.99283" lon="0.13339">
        <ele>1086.93</ele>
        <time>2026-03-27T09:24:15.000Z</time>
      </trkpt>
      <trkpt lat="42.99269" lon="0.13322">
        <ele>1086.23</ele>
        <time>2026-03-27T09:24:18.000Z</time>
      </trkpt>
      <trkpt lat="42.99253" lon="0.13309">
        <ele>1086.07</ele>
        <time>2026-03-27T09:24:21.000Z</time>
      </trkpt>
      <trkpt lat="42.99238" lon="0.13288">
        <ele>1085.24</ele>
        <time>2026-03-27T09:24:25.000Z</time>
      </trkpt>
      <trkpt lat="42.9924" lon="0.13261">
        <ele>1087.97</ele>
        <time>2026-03-27T09:24:30.000Z</time>
      </trkpt>
      <trkpt lat="42.99238" lon="0.13235">
        <ele>1086.45</ele>
        <time>2026-03-27T09:24:34.000Z</time>
      </trkpt>
      <trkpt lat="42.99232" lon="0.13209">
        <ele>1084.95</ele>
        <time>2026-03-27T09:24:38.000Z</time>
      </trkpt>
      <trkpt lat="42.99231" lon="0.13181">
        <ele>1085.65</ele>
        <time>2026-03-27T09:24:42.000Z</time>
      </trkpt>
      <trkpt lat="42.99227" lon="0.13155">
        <ele>1086.24</ele>
        <time>2026-03-27T09:24:46.000Z</time>
      </trkpt>
      <trkpt lat="42.99217" lon="0.13128">
        <ele>1086.62</ele>
        <time>2026-03-27T09:24:50.000Z</time>
      </trkpt>
      <trkpt lat="42.99202" lon="0.13111">
        <ele>1086.87</ele>
        <time>2026-03-27T09:24:53.000Z</time>
      </trkpt>
      <trkpt lat="42.99184" lon="0.13094">
        <ele>1085.11</ele>
        <time>2026-03-27T09:24:57.000Z</time>
      </trkpt>
      <trkpt lat="42.99166" lon="0.13078">
        <ele>1083.22</ele>
        <time>2026-03-27T09:25:01.000Z</time>
      </trkpt>
      <trkpt lat="42.99147" lon="0.13066">
        <ele>1083.69</ele>
        <time>2026-03-27T09:25:05.000Z</time>
      </trkpt>
      <trkpt lat="42.99131" lon="0.13054">
        <ele>1085.11</ele>
        <time>2026-03-27T09:25:11.000Z</time>
      </trkpt>
      <trkpt lat="42.99115" lon="0.13037">
        <ele>1083.37</ele>
        <time>2026-03-27T09:25:18.000Z</time>
      </trkpt>
      <trkpt lat="42.99102" lon="0.13017">
        <ele>1084.54</ele>
        <time>2026-03-27T09:25:26.000Z</time>
      </trkpt>
      <trkpt lat="42.99089" lon="0.13">
        <ele>1087.47</ele>
        <time>2026-03-27T09:25:36.000Z</time>
      </trkpt>
      <trkpt lat="42.99073" lon="0.12988">
        <ele>1088.94</ele>
        <time>2026-03-27T09:25:45.000Z</time>
      </trkpt>
      <trkpt lat="42.99057" lon="0.12975">
        <ele>1089.83</ele>
        <time>2026-03-27T09:25:56.000Z</time>
      </trkpt>
      <trkpt lat="42.9905" lon="0.12951">
        <ele>1092.24</ele>
        <time>2026-03-27T09:26:08.000Z</time>
      </trkpt>
      <trkpt lat="42.99051" lon="0.12925">
        <ele>1094.62</ele>
        <time>2026-03-27T09:26:22.000Z</time>
      </trkpt>
      <trkpt lat="42.9905" lon="0.12898">
        <ele>1097.89</ele>
        <time>2026-03-27T09:26:34.000Z</time>
      </trkpt>
      <trkpt lat="42.9905" lon="0.12873">
        <ele>1100.27</ele>
        <time>2026-03-27T09:26:47.000Z</time>
      </trkpt>
      <trkpt lat="42.99052" lon="0.12846">
        <ele>1101.56</ele>
        <time>2026-03-27T09:26:59.000Z</time>
      </trkpt>
      <trkpt lat="42.9905" lon="0.1282">
        <ele>1100.42</ele>
        <time>2026-03-27T09:27:07.000Z</time>
      </trkpt>
      <trkpt lat="42.99044" lon="0.12793">
        <ele>1100.96</ele>
        <time>2026-03-27T09:27:15.000Z</time>
      </trkpt>
      <trkpt lat="42.99039" lon="0.12767">
        <ele>1101.64</ele>
        <time>2026-03-27T09:27:24.000Z</time>
      </trkpt>
      <trkpt lat="42.99034" lon="0.12741">
        <ele>1101.97</ele>
        <time>2026-03-27T09:27:33.000Z</time>
      </trkpt>
      <trkpt lat="42.9903" lon="0.12716">
        <ele>1100.39</ele>
        <time>2026-03-27T09:27:42.000Z</time>
      </trkpt>
      <trkpt lat="42.99025" lon="0.1269">
        <ele>1102.46</ele>
        <time>2026-03-27T09:27:51.000Z</time>
      </trkpt>
      <trkpt lat="42.99018" lon="0.12666">
        <ele>1102.52</ele>
        <time>2026-03-27T09:27:59.000Z</time>
      </trkpt>
      <trkpt lat="42.99009" lon="0.12642">
        <ele>1098.78</ele>
        <time>2026-03-27T09:28:08.000Z</time>
      </trkpt>
      <trkpt lat="42.99001" lon="0.12618">
        <ele>1098.04</ele>
        <time>2026-03-27T09:28:16.000Z</time>
      </trkpt>
      <trkpt lat="42.98992" lon="0.12592">
        <ele>1098.67</ele>
        <time>2026-03-27T09:28:25.000Z</time>
      </trkpt>
      <trkpt lat="42.98979" lon="0.12573">
        <ele>1099.6</ele>
        <time>2026-03-27T09:28:33.000Z</time>
      </trkpt>
      <trkpt lat="42.98966" lon="0.12553">
        <ele>1096.97</ele>
        <time>2026-03-27T09:28:41.000Z</time>
      </trkpt>
      <trkpt lat="42.98955" lon="0.12532">
        <ele>1098.16</ele>
        <time>2026-03-27T09:28:49.000Z</time>
      </trkpt>
      <trkpt lat="42.98942" lon="0.12511">
        <ele>1100.08</ele>
        <time>2026-03-27T09:28:58.000Z</time>
      </trkpt>
      <trkpt lat="42.98921" lon="0.12511">
        <ele>1098.84</ele>
        <time>2026-03-27T09:29:05.000Z</time>
      </trkpt>
      <trkpt lat="42.98904" lon="0.12518">
        <ele>1098.07</ele>
        <time>2026-03-27T09:29:11.000Z</time>
      </trkpt>
      <trkpt lat="42.98889" lon="0.12533">
        <ele>1103.88</ele>
        <time>2026-03-27T09:29:20.000Z</time>
      </trkpt>
      <trkpt lat="42.98872" lon="0.12548">
        <ele>1105.78</ele>
        <time>2026-03-27T09:29:29.000Z</time>
      </trkpt>
      <trkpt lat="42.98854" lon="0.12558">
        <ele>1106.81</ele>
        <time>2026-03-27T09:29:37.000Z</time>
      </trkpt>
      <trkpt lat="42.98835" lon="0.12562">
        <ele>1108.32</ele>
        <time>2026-03-27T09:29:45.000Z</time>
      </trkpt>
      <trkpt lat="42.98818" lon="0.12554">
        <ele>1112.27</ele>
        <time>2026-03-27T09:29:55.000Z</time>
      </trkpt>
      <trkpt lat="42.98802" lon="0.12541">
        <ele>1110.55</ele>
        <time>2026-03-27T09:30:04.000Z</time>
      </trkpt>
      <trkpt lat="42.98785" lon="0.12527">
        <ele>1116.37</ele>
        <time>2026-03-27T09:30:19.000Z</time>
      </trkpt>
      <trkpt lat="42.98768" lon="0.12519">
        <ele>1119.4</ele>
        <time>2026-03-27T09:30:31.000Z</time>
      </trkpt>
      <trkpt lat="42.98752" lon="0.12502">
        <ele>1126.12</ele>
        <time>2026-03-27T09:31:47.000Z</time>
      </trkpt>
      <trkpt lat="42.98736" lon="0.1249">
        <ele>1125.43</ele>
        <time>2026-03-27T09:31:57.000Z</time>
      </trkpt>
      <trkpt lat="42.98719" lon="0.1248">
        <ele>1127.99</ele>
        <time>2026-03-27T09:32:08.000Z</time>
      </trkpt>
      <trkpt lat="42.987" lon="0.12471">
        <ele>1128.63</ele>
        <time>2026-03-27T09:32:20.000Z</time>
      </trkpt>
      <trkpt lat="42.98682" lon="0.12466">
        <ele>1126.16</ele>
        <time>2026-03-27T09:32:32.000Z</time>
      </trkpt>
      <trkpt lat="42.98661" lon="0.12462">
        <ele>1128.73</ele>
        <time>2026-03-27T09:32:42.000Z</time>
      </trkpt>
      <trkpt lat="42.98644" lon="0.12454">
        <ele>1130.83</ele>
        <time>2026-03-27T09:32:55.000Z</time>
      </trkpt>
      <trkpt lat="42.98628" lon="0.12442">
        <ele>1135.29</ele>
        <time>2026-03-27T09:33:09.000Z</time>
      </trkpt>
      <trkpt lat="42.9861" lon="0.12434">
        <ele>1139.37</ele>
        <time>2026-03-27T09:33:23.000Z</time>
      </trkpt>
      <trkpt lat="42.98592" lon="0.12437">
        <ele>1141.58</ele>
        <time>2026-03-27T09:33:36.000Z</time>
      </trkpt>
      <trkpt lat="42.98575" lon="0.12446">
        <ele>1145.98</ele>
        <time>2026-03-27T09:33:51.000Z</time>
      </trkpt>
      <trkpt lat="42.98557" lon="0.12455">
        <ele>1149.22</ele>
        <time>2026-03-27T09:34:04.000Z</time>
      </trkpt>
      <trkpt lat="42.98539" lon="0.12464">
        <ele>1152.69</ele>
        <time>2026-03-27T09:34:19.000Z</time>
      </trkpt>
      <trkpt lat="42.98524" lon="0.12478">
        <ele>1150.19</ele>
        <time>2026-03-27T09:34:28.000Z</time>
      </trkpt>
      <trkpt lat="42.98507" lon="0.12489">
        <ele>1153.9</ele>
        <time>2026-03-27T09:34:44.000Z</time>
      </trkpt>
      <trkpt lat="42.98489" lon="0.125">
        <ele>1159.77</ele>
        <time>2026-03-27T09:34:58.000Z</time>
      </trkpt>
      <trkpt lat="42.98474" lon="0.12516">
        <ele>1159.42</ele>
        <time>2026-03-27T09:35:13.000Z</time>
      </trkpt>
      <trkpt lat="42.98458" lon="0.12529">
        <ele>1161.45</ele>
        <time>2026-03-27T09:35:24.000Z</time>
      </trkpt>
      <trkpt lat="42.98441" lon="0.12542">
        <ele>1164.21</ele>
        <time>2026-03-27T09:35:37.000Z</time>
      </trkpt>
      <trkpt lat="42.98426" lon="0.12529">
        <ele>1163.14</ele>
        <time>2026-03-27T09:35:50.000Z</time>
      </trkpt>
      <trkpt lat="42.98434" lon="0.12506">
        <ele>1163.67</ele>
        <time>2026-03-27T09:36:03.000Z</time>
      </trkpt>
      <trkpt lat="42.9843" lon="0.12482">
        <ele>1167.6</ele>
        <time>2026-03-27T09:36:14.000Z</time>
      </trkpt>
      <trkpt lat="42.98416" lon="0.12462">
        <ele>1167.67</ele>
        <time>2026-03-27T09:36:24.000Z</time>
      </trkpt>
      <trkpt lat="42.98404" lon="0.12442">
        <ele>1170.44</ele>
        <time>2026-03-27T09:36:35.000Z</time>
      </trkpt>
      <trkpt lat="42.98399" lon="0.12418">
        <ele>1174.67</ele>
        <time>2026-03-27T09:36:46.000Z</time>
      </trkpt>
      <trkpt lat="42.98401" lon="0.12392">
        <ele>1177.36</ele>
        <time>2026-03-27T09:37:00.000Z</time>
      </trkpt>
      <trkpt lat="42.98405" lon="0.12366">
        <ele>1177.73</ele>
        <time>2026-03-27T09:37:14.000Z</time>
      </trkpt>
      <trkpt lat="42.98411" lon="0.12342">
        <ele>1181.09</ele>
        <time>2026-03-27T09:37:28.000Z</time>
      </trkpt>
      <trkpt lat="42.98419" lon="0.12319">
        <ele>1184.2</ele>
        <time>2026-03-27T09:37:43.000Z</time>
      </trkpt>
      <trkpt lat="42.98425" lon="0.12295">
        <ele>1181.29</ele>
        <time>2026-03-27T09:37:54.000Z</time>
      </trkpt>
      <trkpt lat="42.98435" lon="0.12273">
        <ele>1184.98</ele>
        <time>2026-03-27T09:38:10.000Z</time>
      </trkpt>
      <trkpt lat="42.98441" lon="0.12249">
        <ele>1187.6</ele>
        <time>2026-03-27T09:38:23.000Z</time>
      </trkpt>
      <trkpt lat="42.9845" lon="0.12227">
        <ele>1187.86</ele>
        <time>2026-03-27T09:38:36.000Z</time>
      </trkpt>
      <trkpt lat="42.98462" lon="0.12207">
        <ele>1192.3</ele>
        <time>2026-03-27T09:38:49.000Z</time>
      </trkpt>
      <trkpt lat="42.98473" lon="0.12188">
        <ele>1194.26</ele>
        <time>2026-03-27T09:39:01.000Z</time>
      </trkpt>
      <trkpt lat="42.98478" lon="0.12162">
        <ele>1196.63</ele>
        <time>2026-03-27T09:39:12.000Z</time>
      </trkpt>
      <trkpt lat="42.98464" lon="0.12147">
        <ele>1198.32</ele>
        <time>2026-03-27T09:39:21.000Z</time>
      </trkpt>
      <trkpt lat="42.98458" lon="0.12172">
        <ele>1199.06</ele>
        <time>2026-03-27T09:39:38.000Z</time>
      </trkpt>
      <trkpt lat="42.98449" lon="0.12194">
        <ele>1201.53</ele>
        <time>2026-03-27T09:39:52.000Z</time>
      </trkpt>
      <trkpt lat="42.98434" lon="0.12208">
        <ele>1208.49</ele>
        <time>2026-03-27T09:40:08.000Z</time>
      </trkpt>
      <trkpt lat="42.98423" lon="0.12229">
        <ele>1211.08</ele>
        <time>2026-03-27T09:40:19.000Z</time>
      </trkpt>
      <trkpt lat="42.9841" lon="0.12248">
        <ele>1213.57</ele>
        <time>2026-03-27T09:40:32.000Z</time>
      </trkpt>
      <trkpt lat="42.98398" lon="0.12266">
        <ele>1220.04</ele>
        <time>2026-03-27T09:40:47.000Z</time>
      </trkpt>
      <trkpt lat="42.98382" lon="0.1228">
        <ele>1217.39</ele>
        <time>2026-03-27T09:41:01.000Z</time>
      </trkpt>
      <trkpt lat="42.9837" lon="0.12299">
        <ele>1221.26</ele>
        <time>2026-03-27T09:41:21.000Z</time>
      </trkpt>
      <trkpt lat="42.98357" lon="0.12318">
        <ele>1224.53</ele>
        <time>2026-03-27T09:41:36.000Z</time>
      </trkpt>
      <trkpt lat="42.98345" lon="0.12337">
        <ele>1230.44</ele>
        <time>2026-03-27T09:41:56.000Z</time>
      </trkpt>
      <trkpt lat="42.98332" lon="0.12355">
        <ele>1231.76</ele>
        <time>2026-03-27T09:42:15.000Z</time>
      </trkpt>
      <trkpt lat="42.98318" lon="0.12372">
        <ele>1237.08</ele>
        <time>2026-03-27T09:42:38.000Z</time>
      </trkpt>
      <trkpt lat="42.98307" lon="0.12393">
        <ele>1235.3</ele>
        <time>2026-03-27T09:42:56.000Z</time>
      </trkpt>
      <trkpt lat="42.98293" lon="0.12409">
        <ele>1236.8</ele>
        <time>2026-03-27T09:43:15.000Z</time>
      </trkpt>
      <trkpt lat="42.98277" lon="0.12423">
        <ele>1235.03</ele>
        <time>2026-03-27T09:43:31.000Z</time>
      </trkpt>
      <trkpt lat="42.98266" lon="0.12443">
        <ele>1242.68</ele>
        <time>2026-03-27T09:43:49.000Z</time>
      </trkpt>
      <trkpt lat="42.98254" lon="0.12463">
        <ele>1246.13</ele>
        <time>2026-03-27T09:44:07.000Z</time>
      </trkpt>
      <trkpt lat="42.98243" lon="0.12484">
        <ele>1252.61</ele>
        <time>2026-03-27T09:44:27.000Z</time>
      </trkpt>
      <trkpt lat="42.98233" lon="0.12506">
        <ele>1253.12</ele>
        <time>2026-03-27T09:44:45.000Z</time>
      </trkpt>
      <trkpt lat="42.98239" lon="0.1253">
        <ele>1250.05</ele>
        <time>2026-03-27T09:45:04.000Z</time>
      </trkpt>
      <trkpt lat="42.98252" lon="0.12549">
        <ele>1257.87</ele>
        <time>2026-03-27T09:45:19.000Z</time>
      </trkpt>
      <trkpt lat="42.98263" lon="0.1257">
        <ele>1265.08</ele>
        <time>2026-03-27T09:45:34.000Z</time>
      </trkpt>
      <trkpt lat="42.98265" lon="0.12596">
        <ele>1258.94</ele>
        <time>2026-03-27T09:45:53.000Z</time>
      </trkpt>
      <trkpt lat="42.98255" lon="0.12618">
        <ele>1259.68</ele>
        <time>2026-03-27T09:46:03.000Z</time>
      </trkpt>
      <trkpt lat="42.98244" lon="0.12638">
        <ele>1262.01</ele>
        <time>2026-03-27T09:46:12.000Z</time>
      </trkpt>
      <trkpt lat="42.98231" lon="0.12657">
        <ele>1263.4</ele>
        <time>2026-03-27T09:46:20.000Z</time>
      </trkpt>
      <trkpt lat="42.9822" lon="0.12677">
        <ele>1263.63</ele>
        <time>2026-03-27T09:46:31.000Z</time>
      </trkpt>
      <trkpt lat="42.98207" lon="0.12696">
        <ele>1262.34</ele>
        <time>2026-03-27T09:46:42.000Z</time>
      </trkpt>
      <trkpt lat="42.98194" lon="0.12715">
        <ele>1268.2</ele>
        <time>2026-03-27T09:46:53.000Z</time>
      </trkpt>
      <trkpt lat="42.98179" lon="0.12729">
        <ele>1264.99</ele>
        <time>2026-03-27T09:47:15.000Z</time>
      </trkpt>
      <trkpt lat="42.98165" lon="0.12745">
        <ele>1271.74</ele>
        <time>2026-03-27T09:47:33.000Z</time>
      </trkpt>
      <trkpt lat="42.98151" lon="0.12763">
        <ele>1274.08</ele>
        <time>2026-03-27T09:47:53.000Z</time>
      </trkpt>
      <trkpt lat="42.98137" lon="0.12778">
        <ele>1276.67</ele>
        <time>2026-03-27T09:48:13.000Z</time>
      </trkpt>
      <trkpt lat="42.98118" lon="0.12785">
        <ele>1280.44</ele>
        <time>2026-03-27T09:48:34.000Z</time>
      </trkpt>
      <trkpt lat="42.981" lon="0.1279">
        <ele>1284.52</ele>
        <time>2026-03-27T09:48:59.000Z</time>
      </trkpt>
      <trkpt lat="42.98083" lon="0.12796">
        <ele>1286.97</ele>
        <time>2026-03-27T09:49:25.000Z</time>
      </trkpt>
      <trkpt lat="42.98066" lon="0.12805">
        <ele>1288.15</ele>
        <time>2026-03-27T09:49:46.000Z</time>
      </trkpt>
      <trkpt lat="42.98049" lon="0.12816">
        <ele>1289.61</ele>
        <time>2026-03-27T09:50:08.000Z</time>
      </trkpt>
      <trkpt lat="42.98033" lon="0.12829">
        <ele>1295.28</ele>
        <time>2026-03-27T09:50:31.000Z</time>
      </trkpt>
      <trkpt lat="42.98017" lon="0.12842">
        <ele>1298.47</ele>
        <time>2026-03-27T09:50:53.000Z</time>
      </trkpt>
      <trkpt lat="42.98004" lon="0.1286">
        <ele>1302.71</ele>
        <time>2026-03-27T09:52:53.000Z</time>
      </trkpt>
      <trkpt lat="42.98012" lon="0.12883">
        <ele>1298.8</ele>
        <time>2026-03-27T09:53:18.000Z</time>
      </trkpt>
      <trkpt lat="42.9803" lon="0.12886">
        <ele>1296.84</ele>
        <time>2026-03-27T09:53:31.000Z</time>
      </trkpt>
      <trkpt lat="42.9803" lon="0.12912">
        <ele>1298.83</ele>
        <time>2026-03-27T09:53:53.000Z</time>
      </trkpt>
      <trkpt lat="42.98032" lon="0.12937">
        <ele>1302.4</ele>
        <time>2026-03-27T09:54:14.000Z</time>
      </trkpt>
      <trkpt lat="42.98027" lon="0.12961">
        <ele>1309.09</ele>
        <time>2026-03-27T09:54:41.000Z</time>
      </trkpt>
      <trkpt lat="42.98049" lon="0.12957">
        <ele>1314.9</ele>
        <time>2026-03-27T10:04:06.000Z</time>
      </trkpt>
      <trkpt lat="42.98069" lon="0.12951">
        <ele>1311.34</ele>
        <time>2026-03-27T10:04:11.000Z</time>
      </trkpt>
      <trkpt lat="42.98089" lon="0.12945">
        <ele>1309.34</ele>
        <time>2026-03-27T10:04:15.000Z</time>
      </trkpt>
      <trkpt lat="42.98106" lon="0.12938">
        <ele>1308.23</ele>
        <time>2026-03-27T10:04:26.000Z</time>
      </trkpt>
      <trkpt lat="42.98125" lon="0.12933">
        <ele>1305.72</ele>
        <time>2026-03-27T10:04:49.000Z</time>
      </trkpt>
      <trkpt lat="42.98142" lon="0.12942">
        <ele>1305.12</ele>
        <time>2026-03-27T10:05:10.000Z</time>
      </trkpt>
      <trkpt lat="42.98162" lon="0.12938">
        <ele>1305.73</ele>
        <time>2026-03-27T10:06:18.000Z</time>
      </trkpt>
      <trkpt lat="42.9818" lon="0.12927">
        <ele>1305.55</ele>
        <time>2026-03-27T10:06:28.000Z</time>
      </trkpt>
      <trkpt lat="42.98216" lon="0.1291">
        <ele>1307.44</ele>
        <time>2026-03-27T10:06:34.000Z</time>
      </trkpt>
      <trkpt lat="42.98234" lon="0.12905">
        <ele>1308.38</ele>
        <time>2026-03-27T10:06:37.000Z</time>
      </trkpt>
      <trkpt lat="42.98253" lon="0.12903">
        <ele>1309.85</ele>
        <time>2026-03-27T10:06:42.000Z</time>
      </trkpt>
      <trkpt lat="42.9827" lon="0.12892">
        <ele>1311.28</ele>
        <time>2026-03-27T10:06:47.000Z</time>
      </trkpt>
      <trkpt lat="42.98289" lon="0.12887">
        <ele>1310.15</ele>
        <time>2026-03-27T10:06:53.000Z</time>
      </trkpt>
      <trkpt lat="42.9831" lon="0.12887">
        <ele>1310.99</ele>
        <time>2026-03-27T10:06:57.000Z</time>
      </trkpt>
      <trkpt lat="42.98333" lon="0.12884">
        <ele>1310.44</ele>
        <time>2026-03-27T10:07:01.000Z</time>
      </trkpt>
      <trkpt lat="42.98355" lon="0.12881">
        <ele>1312.05</ele>
        <time>2026-03-27T10:07:04.000Z</time>
      </trkpt>
      <trkpt lat="42.98375" lon="0.12876">
        <ele>1310.41</ele>
        <time>2026-03-27T10:07:07.000Z</time>
      </trkpt>
      <trkpt lat="42.98397" lon="0.12873">
        <ele>1311.08</ele>
        <time>2026-03-27T10:07:10.000Z</time>
      </trkpt>
      <trkpt lat="42.98417" lon="0.12867">
        <ele>1309.03</ele>
        <time>2026-03-27T10:07:13.000Z</time>
      </trkpt>
      <trkpt lat="42.9844" lon="0.1286">
        <ele>1306.74</ele>
        <time>2026-03-27T10:07:16.000Z</time>
      </trkpt>
      <trkpt lat="42.98463" lon="0.12852">
        <ele>1303.91</ele>
        <time>2026-03-27T10:07:20.000Z</time>
      </trkpt>
      <trkpt lat="42.98483" lon="0.1284">
        <ele>1304.66</ele>
        <time>2026-03-27T10:07:25.000Z</time>
      </trkpt>
      <trkpt lat="42.98501" lon="0.12833">
        <ele>1301.95</ele>
        <time>2026-03-27T10:07:34.000Z</time>
      </trkpt>
      <trkpt lat="42.98488" lon="0.12851">
        <ele>1293.2</ele>
        <time>2026-03-27T10:08:04.000Z</time>
      </trkpt>
      <trkpt lat="42.98474" lon="0.12866">
        <ele>1297.44</ele>
        <time>2026-03-27T10:08:30.000Z</time>
      </trkpt>
      <trkpt lat="42.98459" lon="0.1288">
        <ele>1302.88</ele>
        <time>2026-03-27T10:08:53.000Z</time>
      </trkpt>
      <trkpt lat="42.98443" lon="0.12893">
        <ele>1306.23</ele>
        <time>2026-03-27T10:09:13.000Z</time>
      </trkpt>
      <trkpt lat="42.9843" lon="0.1291">
        <ele>1310.33</ele>
        <time>2026-03-27T10:09:36.000Z</time>
      </trkpt>
      <trkpt lat="42.98445" lon="0.12923">
        <ele>1314.75</ele>
        <time>2026-03-27T10:10:50.000Z</time>
      </trkpt>
      <trkpt lat="42.98464" lon="0.12924">
        <ele>1321.05</ele>
        <time>2026-03-27T10:11:07.000Z</time>
      </trkpt>
      <trkpt lat="42.98482" lon="0.12922">
        <ele>1323.81</ele>
        <time>2026-03-27T10:11:24.000Z</time>
      </trkpt>
      <trkpt lat="42.985" lon="0.12922">
        <ele>1326.28</ele>
        <time>2026-03-27T10:11:43.000Z</time>
      </trkpt>
      <trkpt lat="42.98518" lon="0.12923">
        <ele>1328.17</ele>
        <time>2026-03-27T10:12:07.000Z</time>
      </trkpt>
      <trkpt lat="42.98537" lon="0.12927">
        <ele>1331.19</ele>
        <time>2026-03-27T10:12:47.000Z</time>
      </trkpt>
      <trkpt lat="42.98555" lon="0.12931">
        <ele>1333.48</ele>
        <time>2026-03-27T10:13:05.000Z</time>
      </trkpt>
      <trkpt lat="42.98573" lon="0.12936">
        <ele>1337.66</ele>
        <time>2026-03-27T10:13:24.000Z</time>
      </trkpt>
      <trkpt lat="42.9859" lon="0.12945">
        <ele>1337.93</ele>
        <time>2026-03-27T10:13:44.000Z</time>
      </trkpt>
      <trkpt lat="42.98606" lon="0.12956">
        <ele>1340.67</ele>
        <time>2026-03-27T10:14:00.000Z</time>
      </trkpt>
      <trkpt lat="42.98619" lon="0.12974">
        <ele>1343.11</ele>
        <time>2026-03-27T10:14:18.000Z</time>
      </trkpt>
      <trkpt lat="42.98631" lon="0.12995">
        <ele>1346.38</ele>
        <time>2026-03-27T10:14:33.000Z</time>
      </trkpt>
      <trkpt lat="42.98639" lon="0.13018">
        <ele>1348.21</ele>
        <time>2026-03-27T10:14:42.000Z</time>
      </trkpt>
      <trkpt lat="42.98646" lon="0.13043">
        <ele>1350.33</ele>
        <time>2026-03-27T10:14:54.000Z</time>
      </trkpt>
      <trkpt lat="42.98653" lon="0.13067">
        <ele>1351.39</ele>
        <time>2026-03-27T10:15:05.000Z</time>
      </trkpt>
      <trkpt lat="42.98657" lon="0.13092">
        <ele>1354.02</ele>
        <time>2026-03-27T10:15:16.000Z</time>
      </trkpt>
      <trkpt lat="42.98663" lon="0.13116">
        <ele>1353.47</ele>
        <time>2026-03-27T10:15:24.000Z</time>
      </trkpt>
      <trkpt lat="42.9867" lon="0.13141">
        <ele>1351.12</ele>
        <time>2026-03-27T10:15:33.000Z</time>
      </trkpt>
      <trkpt lat="42.98677" lon="0.13166">
        <ele>1355.48</ele>
        <time>2026-03-27T10:15:43.000Z</time>
      </trkpt>
      <trkpt lat="42.98681" lon="0.13192">
        <ele>1353.52</ele>
        <time>2026-03-27T10:15:54.000Z</time>
      </trkpt>
      <trkpt lat="42.9869" lon="0.13215">
        <ele>1348.55</ele>
        <time>2026-03-27T10:16:05.000Z</time>
      </trkpt>
      <trkpt lat="42.98698" lon="0.13236">
        <ele>1345.5</ele>
        <time>2026-03-27T10:19:48.000Z</time>
      </trkpt>
      <trkpt lat="42.98699" lon="0.1326">
        <ele>1343.49</ele>
        <time>2026-03-27T10:20:19.000Z</time>
      </trkpt>
      <trkpt lat="42.98712" lon="0.13278">
        <ele>1346.48</ele>
        <time>2026-03-27T10:21:18.000Z</time>
      </trkpt>
      <trkpt lat="42.9872" lon="0.13302">
        <ele>1346.98</ele>
        <time>2026-03-27T10:21:29.000Z</time>
      </trkpt>
      <trkpt lat="42.98731" lon="0.13322">
        <ele>1341.53</ele>
        <time>2026-03-27T10:21:45.000Z</time>
      </trkpt>
      <trkpt lat="42.98742" lon="0.13343">
        <ele>1339.35</ele>
        <time>2026-03-27T10:22:26.000Z</time>
      </trkpt>
      <trkpt lat="42.98749" lon="0.13366">
        <ele>1339.29</ele>
        <time>2026-03-27T10:22:41.000Z</time>
      </trkpt>
      <trkpt lat="42.98764" lon="0.13379">
        <ele>1331.04</ele>
        <time>2026-03-27T10:23:18.000Z</time>
      </trkpt>
      <trkpt lat="42.98782" lon="0.1337">
        <ele>1320.11</ele>
        <time>2026-03-27T10:32:26.000Z</time>
      </trkpt>
      <trkpt lat="42.988" lon="0.13366">
        <ele>1311.23</ele>
        <time>2026-03-27T10:32:35.000Z</time>
      </trkpt>
      <trkpt lat="42.98815" lon="0.13386">
        <ele>1302.17</ele>
        <time>2026-03-27T10:32:57.000Z</time>
      </trkpt>
      <trkpt lat="42.98824" lon="0.13408">
        <ele>1301.33</ele>
        <time>2026-03-27T10:33:06.000Z</time>
      </trkpt>
      <trkpt lat="42.98829" lon="0.13433">
        <ele>1292.34</ele>
        <time>2026-03-27T10:35:10.000Z</time>
      </trkpt>
      <trkpt lat="42.98834" lon="0.13457">
        <ele>1293.18</ele>
        <time>2026-03-27T10:35:20.000Z</time>
      </trkpt>
      <trkpt lat="42.9885" lon="0.13476">
        <ele>1292.88</ele>
        <time>2026-03-27T10:35:48.000Z</time>
      </trkpt>
      <trkpt lat="42.98869" lon="0.13485">
        <ele>1291.76</ele>
        <time>2026-03-27T10:35:54.000Z</time>
      </trkpt>
      <trkpt lat="42.98882" lon="0.13471">
        <ele>1289.74</ele>
        <time>2026-03-27T10:38:04.000Z</time>
      </trkpt>
      <trkpt lat="42.98898" lon="0.13455">
        <ele>1292.3</ele>
        <time>2026-03-27T10:38:14.000Z</time>
      </trkpt>
      <trkpt lat="42.98912" lon="0.13441">
        <ele>1282.77</ele>
        <time>2026-03-27T10:38:56.000Z</time>
      </trkpt>
      <trkpt lat="42.98928" lon="0.13426">
        <ele>1277.87</ele>
        <time>2026-03-27T10:39:10.000Z</time>
      </trkpt>
      <trkpt lat="42.98938" lon="0.13405">
        <ele>1275.15</ele>
        <time>2026-03-27T10:39:22.000Z</time>
      </trkpt>
      <trkpt lat="42.98953" lon="0.13389">
        <ele>1250.61</ele>
        <time>2026-03-27T10:39:47.000Z</time>
      </trkpt>
      <trkpt lat="42.98971" lon="0.13382">
        <ele>1242.37</ele>
        <time>2026-03-27T10:40:01.000Z</time>
      </trkpt>
      <trkpt lat="42.98991" lon="0.13378">
        <ele>1231.91</ele>
        <time>2026-03-27T10:40:11.000Z</time>
      </trkpt>
      <trkpt lat="42.99009" lon="0.13369">
        <ele>1220.42</ele>
        <time>2026-03-27T10:40:22.000Z</time>
      </trkpt>
      <trkpt lat="42.99025" lon="0.13379">
        <ele>1216.17</ele>
        <time>2026-03-27T10:40:31.000Z</time>
      </trkpt>
      <trkpt lat="42.9904" lon="0.13393">
        <ele>1211.61</ele>
        <time>2026-03-27T10:40:49.000Z</time>
      </trkpt>
      <trkpt lat="42.99051" lon="0.13421">
        <ele>1203.2</ele>
        <time>2026-03-27T10:41:51.000Z</time>
      </trkpt>
      <trkpt lat="42.99063" lon="0.13441">
        <ele>1199.29</ele>
        <time>2026-03-27T10:41:57.000Z</time>
      </trkpt>
      <trkpt lat="42.99077" lon="0.13458">
        <ele>1197.83</ele>
        <time>2026-03-27T10:42:02.000Z</time>
      </trkpt>
      <trkpt lat="42.99093" lon="0.13482">
        <ele>1193.74</ele>
        <time>2026-03-27T10:42:09.000Z</time>
      </trkpt>
      <trkpt lat="42.99108" lon="0.13503">
        <ele>1190.73</ele>
        <time>2026-03-27T10:42:14.000Z</time>
      </trkpt>
      <trkpt lat="42.99126" lon="0.13512">
        <ele>1184.33</ele>
        <time>2026-03-27T10:42:23.000Z</time>
      </trkpt>
      <trkpt lat="42.99141" lon="0.13527">
        <ele>1180.65</ele>
        <time>2026-03-27T10:42:47.000Z</time>
      </trkpt>
      <trkpt lat="42.99152" lon="0.13548">
        <ele>1177.45</ele>
        <time>2026-03-27T10:42:55.000Z</time>
      </trkpt>
      <trkpt lat="42.99164" lon="0.13569">
        <ele>1166.49</ele>
        <time>2026-03-27T10:43:34.000Z</time>
      </trkpt>
      <trkpt lat="42.99179" lon="0.1359">
        <ele>1160.89</ele>
        <time>2026-03-27T10:43:41.000Z</time>
      </trkpt>
      <trkpt lat="42.99195" lon="0.13604">
        <ele>1153.55</ele>
        <time>2026-03-27T10:43:47.000Z</time>
      </trkpt>
      <trkpt lat="42.99214" lon="0.13604">
        <ele>1148.92</ele>
        <time>2026-03-27T10:44:10.000Z</time>
      </trkpt>
      <trkpt lat="42.99231" lon="0.13614">
        <ele>1143.68</ele>
        <time>2026-03-27T10:44:20.000Z</time>
      </trkpt>
      <trkpt lat="42.99245" lon="0.13599">
        <ele>1136.97</ele>
        <time>2026-03-27T10:45:24.000Z</time>
      </trkpt>
      <trkpt lat="42.99262" lon="0.13582">
        <ele>1131.36</ele>
        <time>2026-03-27T10:45:34.000Z</time>
      </trkpt>
      <trkpt lat="42.99282" lon="0.1358">
        <ele>1133.2</ele>
        <time>2026-03-27T10:45:43.000Z</time>
      </trkpt>
      <trkpt lat="42.99303" lon="0.13569">
        <ele>1128.98</ele>
        <time>2026-03-27T10:45:46.000Z</time>
      </trkpt>
      <trkpt lat="42.99319" lon="0.13558">
        <ele>1127.04</ele>
        <time>2026-03-27T10:45:51.000Z</time>
      </trkpt>
      <trkpt lat="42.99333" lon="0.13542">
        <ele>1117.56</ele>
        <time>2026-03-27T10:46:02.000Z</time>
      </trkpt>
      <trkpt lat="42.99353" lon="0.13539">
        <ele>1117.84</ele>
        <time>2026-03-27T10:46:20.000Z</time>
      </trkpt>
      <trkpt lat="42.99372" lon="0.13547">
        <ele>1105.63</ele>
        <time>2026-03-27T10:46:29.000Z</time>
      </trkpt>
      <trkpt lat="42.99385" lon="0.13566">
        <ele>1097.54</ele>
        <time>2026-03-27T10:47:35.000Z</time>
      </trkpt>
      <trkpt lat="42.9939" lon="0.1359">
        <ele>1102.09</ele>
        <time>2026-03-27T10:47:51.000Z</time>
      </trkpt>
      <trkpt lat="42.99391" lon="0.13616">
        <ele>1102.07</ele>
        <time>2026-03-27T10:48:05.000Z</time>
      </trkpt>
      <trkpt lat="42.99396" lon="0.13642">
        <ele>1099.92</ele>
        <time>2026-03-27T10:48:45.000Z</time>
      </trkpt>
      <trkpt lat="42.99414" lon="0.13659">
        <ele>1095.11</ele>
        <time>2026-03-27T10:48:51.000Z</time>
      </trkpt>
      <trkpt lat="42.99434" lon="0.13657">
        <ele>1093.46</ele>
        <time>2026-03-27T10:48:56.000Z</time>
      </trkpt>
      <trkpt lat="42.99454" lon="0.13653">
        <ele>1085.74</ele>
        <time>2026-03-27T10:49:22.000Z</time>
      </trkpt>
      <trkpt lat="42.99471" lon="0.13639">
        <ele>1085.78</ele>
        <time>2026-03-27T10:49:30.000Z</time>
      </trkpt>
      <trkpt lat="42.99486" lon="0.13625">
        <ele>1083.76</ele>
        <time>2026-03-27T10:49:51.000Z</time>
      </trkpt>
      <trkpt lat="42.99499" lon="0.13608">
        <ele>1075.05</ele>
        <time>2026-03-27T10:50:04.000Z</time>
      </trkpt>
      <trkpt lat="42.99517" lon="0.13617">
        <ele>1072.24</ele>
        <time>2026-03-27T10:50:13.000Z</time>
      </trkpt>
      <trkpt lat="42.9953" lon="0.13636">
        <ele>1067.83</ele>
        <time>2026-03-27T10:50:28.000Z</time>
      </trkpt>
      <trkpt lat="42.9954" lon="0.13657">
        <ele>1054.36</ele>
        <time>2026-03-27T10:50:54.000Z</time>
      </trkpt>
      <trkpt lat="42.99559" lon="0.13653">
        <ele>1050.72</ele>
        <time>2026-03-27T10:52:03.000Z</time>
      </trkpt>
      <trkpt lat="42.99576" lon="0.13662">
        <ele>1045.88</ele>
        <time>2026-03-27T10:52:11.000Z</time>
      </trkpt>
      <trkpt lat="42.99593" lon="0.13673">
        <ele>1043.13</ele>
        <time>2026-03-27T10:52:20.000Z</time>
      </trkpt>
      <trkpt lat="42.99606" lon="0.13694">
        <ele>1039.88</ele>
        <time>2026-03-27T10:52:29.000Z</time>
      </trkpt>
      <trkpt lat="42.99617" lon="0.13714">
        <ele>1034.47</ele>
        <time>2026-03-27T10:52:37.000Z</time>
      </trkpt>
      <trkpt lat="42.9964" lon="0.13716">
        <ele>1029.49</ele>
        <time>2026-03-27T10:52:42.000Z</time>
      </trkpt>
      <trkpt lat="42.99657" lon="0.13731">
        <ele>1019.37</ele>
        <time>2026-03-27T10:52:57.000Z</time>
      </trkpt>
      <trkpt lat="42.9967" lon="0.13747">
        <ele>1014.81</ele>
        <time>2026-03-27T10:53:05.000Z</time>
      </trkpt>
      <trkpt lat="42.99685" lon="0.13763">
        <ele>1012.05</ele>
        <time>2026-03-27T10:53:14.000Z</time>
      </trkpt>
      <trkpt lat="42.99699" lon="0.1378">
        <ele>1005.74</ele>
        <time>2026-03-27T10:53:22.000Z</time>
      </trkpt>
      <trkpt lat="42.99714" lon="0.13801">
        <ele>999.59</ele>
        <time>2026-03-27T10:53:30.000Z</time>
      </trkpt>
      <trkpt lat="42.9973" lon="0.13814">
        <ele>985.88</ele>
        <time>2026-03-27T10:54:13.000Z</time>
      </trkpt>
      <trkpt lat="42.99748" lon="0.13825">
        <ele>981.94</ele>
        <time>2026-03-27T10:55:14.000Z</time>
      </trkpt>
      <trkpt lat="42.99759" lon="0.13848">
        <ele>979.98</ele>
        <time>2026-03-27T10:55:19.000Z</time>
      </trkpt>
      <trkpt lat="42.99769" lon="0.13871">
        <ele>977.74</ele>
        <time>2026-03-27T10:55:26.000Z</time>
      </trkpt>
      <trkpt lat="42.99778" lon="0.13894">
        <ele>974.42</ele>
        <time>2026-03-27T10:55:31.000Z</time>
      </trkpt>
      <trkpt lat="42.99791" lon="0.1392">
        <ele>969.74</ele>
        <time>2026-03-27T10:55:35.000Z</time>
      </trkpt>
      <trkpt lat="42.99803" lon="0.13942">
        <ele>962.39</ele>
        <time>2026-03-27T10:55:39.000Z</time>
      </trkpt>
      <trkpt lat="42.99812" lon="0.13964">
        <ele>961.07</ele>
        <time>2026-03-27T10:55:51.000Z</time>
      </trkpt>
      <trkpt lat="42.99804" lon="0.13988">
        <ele>956.56</ele>
        <time>2026-03-27T10:55:58.000Z</time>
      </trkpt>
      <trkpt lat="42.99783" lon="0.13992">
        <ele>955.9</ele>
        <time>2026-03-27T10:56:01.000Z</time>
      </trkpt>
      <trkpt lat="42.99763" lon="0.13999">
        <ele>949.93</ele>
        <time>2026-03-27T10:56:07.000Z</time>
      </trkpt>
      <trkpt lat="42.99745" lon="0.13997">
        <ele>948.48</ele>
        <time>2026-03-27T10:56:13.000Z</time>
      </trkpt>
      <trkpt lat="42.99757" lon="0.14019">
        <ele>941.17</ele>
        <time>2026-03-27T10:57:13.000Z</time>
      </trkpt>
      <trkpt lat="42.99772" lon="0.14034">
        <ele>938.07</ele>
        <time>2026-03-27T10:57:18.000Z</time>
      </trkpt>
      <trkpt lat="42.99786" lon="0.14051">
        <ele>937.28</ele>
        <time>2026-03-27T10:57:25.000Z</time>
      </trkpt>
      <trkpt lat="42.99802" lon="0.14066">
        <ele>933.71</ele>
        <time>2026-03-27T10:57:34.000Z</time>
      </trkpt>
      <trkpt lat="42.9982" lon="0.14066">
        <ele>917.23</ele>
        <time>2026-03-27T10:58:17.000Z</time>
      </trkpt>
      <trkpt lat="42.99805" lon="0.14081">
        <ele>927.69</ele>
        <time>2026-03-27T10:59:42.000Z</time>
      </trkpt>
      <trkpt lat="42.99787" lon="0.14079">
        <ele>936.57</ele>
        <time>2026-03-27T11:00:02.000Z</time>
      </trkpt>
      <trkpt lat="42.99769" lon="0.14083">
        <ele>941.58</ele>
        <time>2026-03-27T11:00:21.000Z</time>
      </trkpt>
      <trkpt lat="42.9975" lon="0.14085">
        <ele>947.03</ele>
        <time>2026-03-27T11:00:50.000Z</time>
      </trkpt>
      <trkpt lat="42.99732" lon="0.14088">
        <ele>952.59</ele>
        <time>2026-03-27T11:01:17.000Z</time>
      </trkpt>
      <trkpt lat="42.99714" lon="0.14095">
        <ele>959.57</ele>
        <time>2026-03-27T11:01:47.000Z</time>
      </trkpt>
      <trkpt lat="42.99698" lon="0.14106">
        <ele>958.45</ele>
        <time>2026-03-27T11:02:17.000Z</time>
      </trkpt>
      <trkpt lat="42.99682" lon="0.14118">
        <ele>960.95</ele>
        <time>2026-03-27T11:02:43.000Z</time>
      </trkpt>
      <trkpt lat="42.99663" lon="0.14119">
        <ele>961.03</ele>
        <time>2026-03-27T11:03:06.000Z</time>
      </trkpt>
      <trkpt lat="42.99645" lon="0.14116">
        <ele>960.7</ele>
        <time>2026-03-27T11:03:24.000Z</time>
      </trkpt>
      <trkpt lat="42.99627" lon="0.14111">
        <ele>964.35</ele>
        <time>2026-03-27T11:03:36.000Z</time>
      </trkpt>
      <trkpt lat="42.99608" lon="0.14105">
        <ele>960.73</ele>
        <time>2026-03-27T11:03:46.000Z</time>
      </trkpt>
      <trkpt lat="42.99588" lon="0.14102">
        <ele>963.34</ele>
        <time>2026-03-27T11:03:55.000Z</time>
      </trkpt>
      <trkpt lat="42.9957" lon="0.14107">
        <ele>963.63</ele>
        <time>2026-03-27T11:04:05.000Z</time>
      </trkpt>
      <trkpt lat="42.99552" lon="0.14115">
        <ele>971.62</ele>
        <time>2026-03-27T11:04:17.000Z</time>
      </trkpt>
      <trkpt lat="42.99534" lon="0.14122">
        <ele>972.43</ele>
        <time>2026-03-27T11:04:31.000Z</time>
      </trkpt>
      <trkpt lat="42.99516" lon="0.1413">
        <ele>977.64</ele>
        <time>2026-03-27T11:04:45.000Z</time>
      </trkpt>
      <trkpt lat="42.99497" lon="0.14134">
        <ele>981.42</ele>
        <time>2026-03-27T11:05:01.000Z</time>
      </trkpt>
      <trkpt lat="42.99478" lon="0.14139">
        <ele>983.98</ele>
        <time>2026-03-27T11:05:16.000Z</time>
      </trkpt>
      <trkpt lat="42.9946" lon="0.14143">
        <ele>988.36</ele>
        <time>2026-03-27T11:05:30.000Z</time>
      </trkpt>
      <trkpt lat="42.99441" lon="0.14141">
        <ele>990.73</ele>
        <time>2026-03-27T11:05:41.000Z</time>
      </trkpt>
      <trkpt lat="42.99422" lon="0.14139">
        <ele>987.08</ele>
        <time>2026-03-27T11:05:54.000Z</time>
      </trkpt>
      <trkpt lat="42.99403" lon="0.14136">
        <ele>983.19</ele>
        <time>2026-03-27T11:06:07.000Z</time>
      </trkpt>
      <trkpt lat="42.99385" lon="0.14134">
        <ele>985.57</ele>
        <time>2026-03-27T11:06:17.000Z</time>
      </trkpt>
      <trkpt lat="42.99366" lon="0.1413">
        <ele>991.55</ele>
        <time>2026-03-27T11:06:30.000Z</time>
      </trkpt>
      <trkpt lat="42.99347" lon="0.14129">
        <ele>991.38</ele>
        <time>2026-03-27T11:06:45.000Z</time>
      </trkpt>
      <trkpt lat="42.9933" lon="0.14118">
        <ele>998.03</ele>
        <time>2026-03-27T11:07:02.000Z</time>
      </trkpt>
      <trkpt lat="42.99312" lon="0.14112">
        <ele>1000.9</ele>
        <time>2026-03-27T11:07:18.000Z</time>
      </trkpt>
      <trkpt lat="42.99293" lon="0.14107">
        <ele>1007.46</ele>
        <time>2026-03-27T11:07:36.000Z</time>
      </trkpt>
      <trkpt lat="42.99275" lon="0.14101">
        <ele>1007.63</ele>
        <time>2026-03-27T11:07:57.000Z</time>
      </trkpt>
      <trkpt lat="42.99257" lon="0.14098">
        <ele>1012.26</ele>
        <time>2026-03-27T11:08:11.000Z</time>
      </trkpt>
      <trkpt lat="42.99239" lon="0.14094">
        <ele>1012.36</ele>
        <time>2026-03-27T11:08:23.000Z</time>
      </trkpt>
      <trkpt lat="42.99221" lon="0.14093">
        <ele>1011.95</ele>
        <time>2026-03-27T11:08:35.000Z</time>
      </trkpt>
      <trkpt lat="42.99202" lon="0.14088">
        <ele>1015.73</ele>
        <time>2026-03-27T11:08:47.000Z</time>
      </trkpt>
      <trkpt lat="42.99184" lon="0.14083">
        <ele>1014.13</ele>
        <time>2026-03-27T11:09:00.000Z</time>
      </trkpt>
      <trkpt lat="42.99165" lon="0.14079">
        <ele>1016.66</ele>
        <time>2026-03-27T11:09:12.000Z</time>
      </trkpt>
      <trkpt lat="42.99147" lon="0.14076">
        <ele>1017.28</ele>
        <time>2026-03-27T11:09:26.000Z</time>
      </trkpt>
      <trkpt lat="42.99129" lon="0.14074">
        <ele>1018.78</ele>
        <time>2026-03-27T11:09:39.000Z</time>
      </trkpt>
      <trkpt lat="42.9911" lon="0.1408">
        <ele>1021.58</ele>
        <time>2026-03-27T11:09:54.000Z</time>
      </trkpt>
      <trkpt lat="42.99093" lon="0.14088">
        <ele>1021.99</ele>
        <time>2026-03-27T11:10:12.000Z</time>
      </trkpt>
      <trkpt lat="42.99075" lon="0.14097">
        <ele>1026.27</ele>
        <time>2026-03-27T11:10:28.000Z</time>
      </trkpt>
      <trkpt lat="42.99095" lon="0.14105">
        <ele>1031.04</ele>
        <time>2026-03-27T11:11:42.000Z</time>
      </trkpt>
      <trkpt lat="42.99114" lon="0.14115">
        <ele>1034.03</ele>
        <time>2026-03-27T11:11:50.000Z</time>
      </trkpt>
      <trkpt lat="42.99133" lon="0.14126">
        <ele>1034.77</ele>
        <time>2026-03-27T11:11:57.000Z</time>
      </trkpt>
      <trkpt lat="42.99152" lon="0.14135">
        <ele>1040.07</ele>
        <time>2026-03-27T11:12:05.000Z</time>
      </trkpt>
      <trkpt lat="42.99171" lon="0.14143">
        <ele>1038.2</ele>
        <time>2026-03-27T11:12:11.000Z</time>
      </trkpt>
      <trkpt lat="42.9919" lon="0.14156">
        <ele>1037.1</ele>
        <time>2026-03-27T11:12:17.000Z</time>
      </trkpt>
      <trkpt lat="42.99206" lon="0.14176">
        <ele>1039.88</ele>
        <time>2026-03-27T11:12:23.000Z</time>
      </trkpt>
      <trkpt lat="42.99224" lon="0.14189">
        <ele>1039.41</ele>
        <time>2026-03-27T11:12:28.000Z</time>
      </trkpt>
      <trkpt lat="42.99242" lon="0.14195">
        <ele>1040.93</ele>
        <time>2026-03-27T11:12:33.000Z</time>
      </trkpt>
      <trkpt lat="42.99258" lon="0.14207">
        <ele>1041.15</ele>
        <time>2026-03-27T11:12:38.000Z</time>
      </trkpt>
      <trkpt lat="42.99278" lon="0.14218">
        <ele>1046.39</ele>
        <time>2026-03-27T11:12:46.000Z</time>
      </trkpt>
      <trkpt lat="42.99296" lon="0.14229">
        <ele>1047.66</ele>
        <time>2026-03-27T11:12:51.000Z</time>
      </trkpt>
      <trkpt lat="42.99316" lon="0.14245">
        <ele>1039.82</ele>
        <time>2026-03-27T11:12:54.000Z</time>
      </trkpt>
      <trkpt lat="42.99334" lon="0.14257">
        <ele>1038.04</ele>
        <time>2026-03-27T11:13:00.000Z</time>
      </trkpt>
      <trkpt lat="42.99353" lon="0.14268">
        <ele>1039.92</ele>
        <time>2026-03-27T11:13:06.000Z</time>
      </trkpt>
      <trkpt lat="42.99371" lon="0.14285">
        <ele>1040.01</ele>
        <time>2026-03-27T11:13:12.000Z</time>
      </trkpt>
      <trkpt lat="42.99386" lon="0.14298">
        <ele>1040.58</ele>
        <time>2026-03-27T11:13:17.000Z</time>
      </trkpt>
      <trkpt lat="42.99406" lon="0.14305">
        <ele>1040.57</ele>
        <time>2026-03-27T11:13:22.000Z</time>
      </trkpt>
      <trkpt lat="42.99426" lon="0.14314">
        <ele>1040.26</ele>
        <time>2026-03-27T11:13:27.000Z</time>
      </trkpt>
      <trkpt lat="42.99446" lon="0.14317">
        <ele>1041.24</ele>
        <time>2026-03-27T11:13:32.000Z</time>
      </trkpt>
      <trkpt lat="42.99464" lon="0.1432">
        <ele>1040.86</ele>
        <time>2026-03-27T11:13:37.000Z</time>
      </trkpt>
      <trkpt lat="42.99485" lon="0.14321">
        <ele>1039.85</ele>
        <time>2026-03-27T11:13:42.000Z</time>
      </trkpt>
      <trkpt lat="42.99506" lon="0.14317">
        <ele>1039.77</ele>
        <time>2026-03-27T11:13:47.000Z</time>
      </trkpt>
      <trkpt lat="42.99525" lon="0.14312">
        <ele>1040.76</ele>
        <time>2026-03-27T11:13:52.000Z</time>
      </trkpt>
      <trkpt lat="42.99543" lon="0.14311">
        <ele>1044.5</ele>
        <time>2026-03-27T11:13:57.000Z</time>
      </trkpt>
      <trkpt lat="42.99561" lon="0.14313">
        <ele>1042.16</ele>
        <time>2026-03-27T11:14:03.000Z</time>
      </trkpt>
      <trkpt lat="42.9958" lon="0.14313">
        <ele>1041.91</ele>
        <time>2026-03-27T11:14:08.000Z</time>
      </trkpt>
      <trkpt lat="42.996" lon="0.14314">
        <ele>1040.79</ele>
        <time>2026-03-27T11:14:13.000Z</time>
      </trkpt>
      <trkpt lat="42.99622" lon="0.14318">
        <ele>1038.32</ele>
        <time>2026-03-27T11:14:18.000Z</time>
      </trkpt>
      <trkpt lat="42.9964" lon="0.1432">
        <ele>1035.45</ele>
        <time>2026-03-27T11:14:22.000Z</time>
      </trkpt>
      <trkpt lat="42.99662" lon="0.14326">
        <ele>1038.08</ele>
        <time>2026-03-27T11:14:27.000Z</time>
      </trkpt>
      <trkpt lat="42.99683" lon="0.14336">
        <ele>1038.62</ele>
        <time>2026-03-27T11:14:32.000Z</time>
      </trkpt>
      <trkpt lat="42.99702" lon="0.14342">
        <ele>1037.1</ele>
        <time>2026-03-27T11:14:36.000Z</time>
      </trkpt>
      <trkpt lat="42.99723" lon="0.14351">
        <ele>1041.57</ele>
        <time>2026-03-27T11:14:41.000Z</time>
      </trkpt>
      <trkpt lat="42.99742" lon="0.14362">
        <ele>1040.96</ele>
        <time>2026-03-27T11:14:46.000Z</time>
      </trkpt>
      <trkpt lat="42.99762" lon="0.14374">
        <ele>1036.32</ele>
        <time>2026-03-27T11:14:51.000Z</time>
      </trkpt>
      <trkpt lat="42.99781" lon="0.14387">
        <ele>1032.37</ele>
        <time>2026-03-27T11:14:56.000Z</time>
      </trkpt>
      <trkpt lat="42.99798" lon="0.14402">
        <ele>1033.64</ele>
        <time>2026-03-27T11:15:01.000Z</time>
      </trkpt>
      <trkpt lat="42.99815" lon="0.14415">
        <ele>1033.23</ele>
        <time>2026-03-27T11:15:06.000Z</time>
      </trkpt>
      <trkpt lat="42.99833" lon="0.1443">
        <ele>1033.47</ele>
        <time>2026-03-27T11:15:11.000Z</time>
      </trkpt>
      <trkpt lat="42.99852" lon="0.14444">
        <ele>1031.81</ele>
        <time>2026-03-27T11:15:16.000Z</time>
      </trkpt>
      <trkpt lat="42.9987" lon="0.14459">
        <ele>1032.49</ele>
        <time>2026-03-27T11:15:21.000Z</time>
      </trkpt>
      <trkpt lat="42.99888" lon="0.14471">
        <ele>1032.19</ele>
        <time>2026-03-27T11:15:26.000Z</time>
      </trkpt>
      <trkpt lat="42.99903" lon="0.14486">
        <ele>1036.68</ele>
        <time>2026-03-27T11:15:33.000Z</time>
      </trkpt>
      <trkpt lat="42.99921" lon="0.14487">
        <ele>1039.26</ele>
        <time>2026-03-27T11:15:58.000Z</time>
      </trkpt>
      <trkpt lat="42.99936" lon="0.14459">
        <ele>1032.62</ele>
        <time>2026-03-27T11:16:00.000Z</time>
      </trkpt>
      <trkpt lat="42.99955" lon="0.14456">
        <ele>1020.95</ele>
        <time>2026-03-27T11:16:10.000Z</time>
      </trkpt>
      <trkpt lat="42.99974" lon="0.14455">
        <ele>1010.07</ele>
        <time>2026-03-27T11:16:18.000Z</time>
      </trkpt>
      <trkpt lat="42.99985" lon="0.14429">
        <ele>1006.35</ele>
        <time>2026-03-27T11:16:21.000Z</time>
      </trkpt>
      <trkpt lat="43" lon="0.14414">
        <ele>1002.01</ele>
        <time>2026-03-27T11:16:26.000Z</time>
      </trkpt>
      <trkpt lat="43.00022" lon="0.14418">
        <ele>1002.37</ele>
        <time>2026-03-27T11:16:33.000Z</time>
      </trkpt>
      <trkpt lat="43.00042" lon="0.1442">
        <ele>999.48</ele>
        <time>2026-03-27T11:16:37.000Z</time>
      </trkpt>
      <trkpt lat="43.0006" lon="0.14416">
        <ele>993.28</ele>
        <time>2026-03-27T11:16:41.000Z</time>
      </trkpt>
      <trkpt lat="43.00079" lon="0.14418">
        <ele>987.72</ele>
        <time>2026-03-27T11:16:47.000Z</time>
      </trkpt>
      <trkpt lat="43.00098" lon="0.14438">
        <ele>984.13</ele>
        <time>2026-03-27T11:16:53.000Z</time>
      </trkpt>
      <trkpt lat="43.00116" lon="0.1445">
        <ele>977.53</ele>
        <time>2026-03-27T11:17:00.000Z</time>
      </trkpt>
      <trkpt lat="43.00132" lon="0.14464">
        <ele>968.83</ele>
        <time>2026-03-27T11:17:14.000Z</time>
      </trkpt>
      <trkpt lat="43.00149" lon="0.1448">
        <ele>960.07</ele>
        <time>2026-03-27T11:17:24.000Z</time>
      </trkpt>
      <trkpt lat="43.00142" lon="0.14517">
        <ele>961.72</ele>
        <time>2026-03-27T11:17:30.000Z</time>
      </trkpt>
      <trkpt lat="43.00131" lon="0.14542">
        <ele>964.5</ele>
        <time>2026-03-27T11:17:34.000Z</time>
      </trkpt>
      <trkpt lat="43.00135" lon="0.14571">
        <ele>961.5</ele>
        <time>2026-03-27T11:17:38.000Z</time>
      </trkpt>
      <trkpt lat="43.00142" lon="0.14595">
        <ele>960.47</ele>
        <time>2026-03-27T11:17:42.000Z</time>
      </trkpt>
      <trkpt lat="43.00144" lon="0.14622">
        <ele>960.5</ele>
        <time>2026-03-27T11:17:46.000Z</time>
      </trkpt>
      <trkpt lat="43.0015" lon="0.14646">
        <ele>963.42</ele>
        <time>2026-03-27T11:17:51.000Z</time>
      </trkpt>
      <trkpt lat="43.00157" lon="0.14676">
        <ele>964.64</ele>
        <time>2026-03-27T11:17:55.000Z</time>
      </trkpt>
      <trkpt lat="43.00163" lon="0.14706">
        <ele>963.92</ele>
        <time>2026-03-27T11:17:59.000Z</time>
      </trkpt>
      <trkpt lat="43.00179" lon="0.1473">
        <ele>961.98</ele>
        <time>2026-03-27T11:18:03.000Z</time>
      </trkpt>
      <trkpt lat="43.00198" lon="0.1474">
        <ele>960.86</ele>
        <time>2026-03-27T11:18:08.000Z</time>
      </trkpt>
      <trkpt lat="43.00217" lon="0.14752">
        <ele>957.92</ele>
        <time>2026-03-27T11:18:14.000Z</time>
      </trkpt>
      <trkpt lat="43.00236" lon="0.14754">
        <ele>954.66</ele>
        <time>2026-03-27T11:18:20.000Z</time>
      </trkpt>
      <trkpt lat="43.00255" lon="0.14746">
        <ele>949.4</ele>
        <time>2026-03-27T11:18:24.000Z</time>
      </trkpt>
      <trkpt lat="43.00275" lon="0.14732">
        <ele>948.21</ele>
        <time>2026-03-27T11:18:28.000Z</time>
      </trkpt>
      <trkpt lat="43.00294" lon="0.14722">
        <ele>946.23</ele>
        <time>2026-03-27T11:18:33.000Z</time>
      </trkpt>
      <trkpt lat="43.00313" lon="0.1471">
        <ele>947.36</ele>
        <time>2026-03-27T11:18:37.000Z</time>
      </trkpt>
      <trkpt lat="43.00331" lon="0.14695">
        <ele>945.07</ele>
        <time>2026-03-27T11:18:41.000Z</time>
      </trkpt>
      <trkpt lat="43.0035" lon="0.14678">
        <ele>943.77</ele>
        <time>2026-03-27T11:18:46.000Z</time>
      </trkpt>
      <trkpt lat="43.00367" lon="0.14666">
        <ele>945.13</ele>
        <time>2026-03-27T11:18:54.000Z</time>
      </trkpt>
      <trkpt lat="43.00384" lon="0.14653">
        <ele>945.14</ele>
        <time>2026-03-27T11:19:05.000Z</time>
      </trkpt>
      <trkpt lat="43.004" lon="0.1464">
        <ele>943.33</ele>
        <time>2026-03-27T11:19:12.000Z</time>
      </trkpt>
      <trkpt lat="43.00419" lon="0.14644">
        <ele>939.66</ele>
        <time>2026-03-27T11:19:23.000Z</time>
      </trkpt>
      <trkpt lat="43.00415" lon="0.14619">
        <ele>933.5</ele>
        <time>2026-03-27T11:19:32.000Z</time>
      </trkpt>
      <trkpt lat="43.00413" lon="0.14593">
        <ele>923.46</ele>
        <time>2026-03-27T11:19:45.000Z</time>
      </trkpt>
      <trkpt lat="43.00431" lon="0.14588">
        <ele>917.34</ele>
        <time>2026-03-27T11:20:28.000Z</time>
      </trkpt>
      <trkpt lat="43.00435" lon="0.14564">
        <ele>907.98</ele>
        <time>2026-03-27T11:20:49.000Z</time>
      </trkpt>
      <trkpt lat="43.00448" lon="0.14545">
        <ele>891.46</ele>
        <time>2026-03-27T11:21:52.000Z</time>
      </trkpt>
      <trkpt lat="43.00451" lon="0.1452">
        <ele>882.28</ele>
        <time>2026-03-27T11:22:36.000Z</time>
      </trkpt>
      <trkpt lat="43.00466" lon="0.14506">
        <ele>868.78</ele>
        <time>2026-03-27T11:24:01.000Z</time>
      </trkpt>
      <trkpt lat="43.00482" lon="0.14518">
        <ele>857.61</ele>
        <time>2026-03-27T11:24:36.000Z</time>
      </trkpt>
      <trkpt lat="43.005" lon="0.14528">
        <ele>848.35</ele>
        <time>2026-03-27T11:25:27.000Z</time>
      </trkpt>
      <trkpt lat="43.00519" lon="0.14531">
        <ele>842.06</ele>
        <time>2026-03-27T11:25:49.000Z</time>
      </trkpt>
      <trkpt lat="43.00535" lon="0.14547">
        <ele>844.16</ele>
        <time>2026-03-27T11:25:58.000Z</time>
      </trkpt>
      <trkpt lat="43.00555" lon="0.14549">
        <ele>831.16</ele>
        <time>2026-03-27T11:26:06.000Z</time>
      </trkpt>
      <trkpt lat="43.00575" lon="0.14555">
        <ele>824.6</ele>
        <time>2026-03-27T11:26:20.000Z</time>
      </trkpt>
      <trkpt lat="43.00592" lon="0.14563">
        <ele>825.03</ele>
        <time>2026-03-27T11:26:26.000Z</time>
      </trkpt>
      <trkpt lat="43.00611" lon="0.14567">
        <ele>823.55</ele>
        <time>2026-03-27T11:26:34.000Z</time>
      </trkpt>
      <trkpt lat="43.00628" lon="0.14575">
        <ele>821.07</ele>
        <time>2026-03-27T11:26:54.000Z</time>
      </trkpt>
      <trkpt lat="43.00648" lon="0.14581">
        <ele>822.4</ele>
        <time>2026-03-27T11:27:21.000Z</time>
      </trkpt>
      <trkpt lat="43.00668" lon="0.14583">
        <ele>817.16</ele>
        <time>2026-03-27T11:27:57.000Z</time>
      </trkpt>
      <trkpt lat="43.00688" lon="0.14585">
        <ele>805.13</ele>
        <time>2026-03-27T11:28:07.000Z</time>
      </trkpt>
      <trkpt lat="43.00708" lon="0.14583">
        <ele>798.52</ele>
        <time>2026-03-27T11:28:15.000Z</time>
      </trkpt>
      <trkpt lat="43.00727" lon="0.14575">
        <ele>792.19</ele>
        <time>2026-03-27T11:28:22.000Z</time>
      </trkpt>
      <trkpt lat="43.00746" lon="0.14573">
        <ele>788.43</ele>
        <time>2026-03-27T11:28:28.000Z</time>
      </trkpt>
      <trkpt lat="43.00764" lon="0.1458">
        <ele>777.05</ele>
        <time>2026-03-27T11:28:39.000Z</time>
      </trkpt>
      <trkpt lat="43.00782" lon="0.14584">
        <ele>776.68</ele>
        <time>2026-03-27T11:28:45.000Z</time>
      </trkpt>
      <trkpt lat="43.00801" lon="0.14583">
        <ele>776.53</ele>
        <time>2026-03-27T11:28:51.000Z</time>
      </trkpt>
      <trkpt lat="43.0082" lon="0.14598">
        <ele>773.29</ele>
        <time>2026-03-27T11:28:56.000Z</time>
      </trkpt>
      <trkpt lat="43.00843" lon="0.14607">
        <ele>773.28</ele>
        <time>2026-03-27T11:29:00.000Z</time>
      </trkpt>
      <trkpt lat="43.00857" lon="0.14623">
        <ele>770.79</ele>
        <time>2026-03-27T11:29:03.000Z</time>
      </trkpt>
      <trkpt lat="43.00873" lon="0.14639">
        <ele>770.06</ele>
        <time>2026-03-27T11:29:08.000Z</time>
      </trkpt>
      <trkpt lat="43.00892" lon="0.14653">
        <ele>766.26</ele>
        <time>2026-03-27T11:29:13.000Z</time>
      </trkpt>
      <trkpt lat="43.00909" lon="0.14673">
        <ele>765.43</ele>
        <time>2026-03-27T11:29:18.000Z</time>
      </trkpt>
      <trkpt lat="43.00926" lon="0.14691">
        <ele>764.12</ele>
        <time>2026-03-27T11:29:22.000Z</time>
      </trkpt>
      <trkpt lat="43.00941" lon="0.14709">
        <ele>765.46</ele>
        <time>2026-03-27T11:29:26.000Z</time>
      </trkpt>
      <trkpt lat="43.00952" lon="0.14729">
        <ele>767.47</ele>
        <time>2026-03-27T11:29:30.000Z</time>
      </trkpt>
      <trkpt lat="43.00964" lon="0.1475">
        <ele>767.83</ele>
        <time>2026-03-27T11:29:36.000Z</time>
      </trkpt>
      <trkpt lat="43.00979" lon="0.14769">
        <ele>770.68</ele>
        <time>2026-03-27T11:29:42.000Z</time>
      </trkpt>
      <trkpt lat="43.00995" lon="0.14785">
        <ele>771.42</ele>
        <time>2026-03-27T11:29:47.000Z</time>
      </trkpt>
      <trkpt lat="43.01013" lon="0.14803">
        <ele>772.28</ele>
        <time>2026-03-27T11:29:51.000Z</time>
      </trkpt>
      <trkpt lat="43.0103" lon="0.14819">
        <ele>769.19</ele>
        <time>2026-03-27T11:29:57.000Z</time>
      </trkpt>
      <trkpt lat="43.01044" lon="0.14843">
        <ele>767.05</ele>
        <time>2026-03-27T11:30:01.000Z</time>
      </trkpt>
      <trkpt lat="43.01065" lon="0.14858">
        <ele>765</ele>
        <time>2026-03-27T11:30:04.000Z</time>
      </trkpt>
      <trkpt lat="43.01078" lon="0.14875">
        <ele>761.11</ele>
        <time>2026-03-27T11:30:06.000Z</time>
      </trkpt>
      <trkpt lat="43.01091" lon="0.14892">
        <ele>759.58</ele>
        <time>2026-03-27T11:30:08.000Z</time>
      </trkpt>
      <trkpt lat="43.0111" lon="0.1492">
        <ele>757.63</ele>
        <time>2026-03-27T11:30:11.000Z</time>
      </trkpt>
      <trkpt lat="43.01126" lon="0.14945">
        <ele>753.98</ele>
        <time>2026-03-27T11:30:14.000Z</time>
      </trkpt>
      <trkpt lat="43.01141" lon="0.14972">
        <ele>752.03</ele>
        <time>2026-03-27T11:30:17.000Z</time>
      </trkpt>
      <trkpt lat="43.01159" lon="0.14996">
        <ele>747.8</ele>
        <time>2026-03-27T11:30:20.000Z</time>
      </trkpt>
      <trkpt lat="43.01178" lon="0.15017">
        <ele>743.1</ele>
        <time>2026-03-27T11:30:23.000Z</time>
      </trkpt>
      <trkpt lat="43.01195" lon="0.15036">
        <ele>736.54</ele>
        <time>2026-03-27T11:30:26.000Z</time>
      </trkpt>
      <trkpt lat="43.01204" lon="0.15062">
        <ele>732.15</ele>
        <time>2026-03-27T11:30:29.000Z</time>
      </trkpt>
      <trkpt lat="43.01213" lon="0.1509">
        <ele>728.74</ele>
        <time>2026-03-27T11:30:32.000Z</time>
      </trkpt>
      <trkpt lat="43.01222" lon="0.15113">
        <ele>725.77</ele>
        <time>2026-03-27T11:30:35.000Z</time>
      </trkpt>
      <trkpt lat="43.01225" lon="0.15138">
        <ele>727.74</ele>
        <time>2026-03-27T11:30:39.000Z</time>
        <extensions>
          <visugpx:TrkExtension xmlns:visugpx="https://www.visugpx.com/editgpx/">
            <visugpx:node>1</visugpx:node>
            </visugpx:TrkExtension>
        </extensions>
      </trkpt>
    </trkseg>
  </trk>
</gpx>